<?xml version="1.0" encoding="UTF-8" standalone="no" ?>
<gpx xmlns="http://www.topografix.com/GPX/1/1" xmlns:xsi="http://www.w3.org/2001/XMLSchema-instance" xsi:schemaLocation="http://www.topografix.com/GPX/1/1 http://www.topografix.com/GPX/1/1/gpx.xsd" version="1.1" creator="VisuGPX - https://www.visugpx.com">
  <metadata>
    <name>flamerecourt</name>
    <desc><![CDATA[rando du 17.06.10]]></desc>
  </metadata>
  <trk>
    <name><![CDATA[FLAMMERECOURT]]></name>
    <trkseg>
      <trkpt lat="48.36237" lon="5.04481">
        <ele>230.85</ele>
        <time>2010-06-17T14:51:49Z</time>
      </trkpt>
      <trkpt lat="48.36237" lon="5.04481">
        <ele>234.22</ele>
        <time>2010-06-17T14:51:50Z</time>
      </trkpt>
      <trkpt lat="48.36237" lon="5.04481">
        <ele>232.3</ele>
        <time>2010-06-17T14:51:56Z</time>
      </trkpt>
      <trkpt lat="48.3624" lon="5.04476">
        <ele>230.85</ele>
        <time>2010-06-17T14:52:27Z</time>
      </trkpt>
      <trkpt lat="48.36237" lon="5.04477">
        <ele>230.85</ele>
        <time>2010-06-17T14:52:30Z</time>
      </trkpt>
      <trkpt lat="48.36237" lon="5.04488">
        <ele>230.85</ele>
        <time>2010-06-17T14:52:36Z</time>
      </trkpt>
      <trkpt lat="48.36238" lon="5.04498">
        <ele>227.49</ele>
        <time>2010-06-17T14:52:51Z</time>
      </trkpt>
      <trkpt lat="48.36238" lon="5.04498">
        <ele>231.81</ele>
        <time>2010-06-17T14:52:52Z</time>
      </trkpt>
      <trkpt lat="48.36238" lon="5.04498">
        <ele>227.97</ele>
        <time>2010-06-17T14:52:56Z</time>
      </trkpt>
      <trkpt lat="48.36238" lon="5.04498">
        <ele>231.33</ele>
        <time>2010-06-17T14:52:58Z</time>
      </trkpt>
      <trkpt lat="48.36245" lon="5.04517">
        <ele>230.85</ele>
        <time>2010-06-17T14:53:38Z</time>
      </trkpt>
      <trkpt lat="48.36258" lon="5.04587">
        <ele>231.81</ele>
        <time>2010-06-17T14:53:52Z</time>
      </trkpt>
      <trkpt lat="48.36284" lon="5.0468">
        <ele>232.3</ele>
        <time>2010-06-17T14:54:10Z</time>
      </trkpt>
      <trkpt lat="48.36313" lon="5.04765">
        <ele>233.74</ele>
        <time>2010-06-17T14:54:28Z</time>
      </trkpt>
      <trkpt lat="48.36354" lon="5.04807">
        <ele>234.7</ele>
        <time>2010-06-17T14:54:41Z</time>
      </trkpt>
      <trkpt lat="48.36405" lon="5.04824">
        <ele>235.66</ele>
        <time>2010-06-17T14:54:56Z</time>
      </trkpt>
      <trkpt lat="48.36457" lon="5.04833">
        <ele>236.14</ele>
        <time>2010-06-17T14:55:10Z</time>
      </trkpt>
      <trkpt lat="48.36517" lon="5.04848">
        <ele>237.1</ele>
        <time>2010-06-17T14:55:26Z</time>
      </trkpt>
      <trkpt lat="48.36568" lon="5.0487">
        <ele>237.1</ele>
        <time>2010-06-17T14:55:40Z</time>
      </trkpt>
      <trkpt lat="48.3659" lon="5.0488">
        <ele>237.58</ele>
        <time>2010-06-17T14:55:46Z</time>
      </trkpt>
      <trkpt lat="48.36594" lon="5.04883">
        <ele>238.06</ele>
        <time>2010-06-17T14:55:47Z</time>
      </trkpt>
      <trkpt lat="48.36597" lon="5.04885">
        <ele>237.58</ele>
        <time>2010-06-17T14:55:48Z</time>
      </trkpt>
      <trkpt lat="48.36648" lon="5.04929">
        <ele>239.02</ele>
        <time>2010-06-17T14:56:04Z</time>
      </trkpt>
      <trkpt lat="48.36697" lon="5.04952">
        <ele>240.95</ele>
        <time>2010-06-17T14:56:19Z</time>
      </trkpt>
      <trkpt lat="48.36723" lon="5.04944">
        <ele>244.31</ele>
        <time>2010-06-17T14:56:29Z</time>
      </trkpt>
      <trkpt lat="48.36743" lon="5.04918">
        <ele>247.68</ele>
        <time>2010-06-17T14:56:41Z</time>
      </trkpt>
      <trkpt lat="48.36761" lon="5.04886">
        <ele>250.08</ele>
        <time>2010-06-17T14:56:55Z</time>
      </trkpt>
      <trkpt lat="48.36786" lon="5.04856">
        <ele>252.96</ele>
        <time>2010-06-17T14:57:08Z</time>
      </trkpt>
      <trkpt lat="48.36827" lon="5.04833">
        <ele>255.37</ele>
        <time>2010-06-17T14:57:20Z</time>
      </trkpt>
      <trkpt lat="48.36864" lon="5.04838">
        <ele>258.25</ele>
        <time>2010-06-17T14:57:32Z</time>
      </trkpt>
      <trkpt lat="48.36892" lon="5.04842">
        <ele>261.14</ele>
        <time>2010-06-17T14:57:45Z</time>
      </trkpt>
      <trkpt lat="48.36916" lon="5.04854">
        <ele>264.02</ele>
        <time>2010-06-17T14:57:56Z</time>
      </trkpt>
      <trkpt lat="48.36937" lon="5.04869">
        <ele>266.9</ele>
        <time>2010-06-17T14:58:09Z</time>
      </trkpt>
      <trkpt lat="48.36963" lon="5.04884">
        <ele>270.27</ele>
        <time>2010-06-17T14:58:24Z</time>
      </trkpt>
      <trkpt lat="48.36977" lon="5.04893">
        <ele>272.67</ele>
        <time>2010-06-17T14:58:36Z</time>
      </trkpt>
      <trkpt lat="48.36993" lon="5.04911">
        <ele>275.56</ele>
        <time>2010-06-17T14:58:49Z</time>
      </trkpt>
      <trkpt lat="48.37012" lon="5.04939">
        <ele>278.92</ele>
        <time>2010-06-17T14:59:04Z</time>
      </trkpt>
      <trkpt lat="48.37016" lon="5.04945">
        <ele>279.4</ele>
        <time>2010-06-17T14:59:07Z</time>
      </trkpt>
      <trkpt lat="48.37017" lon="5.04947">
        <ele>279.88</ele>
        <time>2010-06-17T14:59:08Z</time>
      </trkpt>
      <trkpt lat="48.37032" lon="5.0497">
        <ele>282.77</ele>
        <time>2010-06-17T14:59:20Z</time>
      </trkpt>
      <trkpt lat="48.37048" lon="5.04997">
        <ele>285.17</ele>
        <time>2010-06-17T14:59:34Z</time>
      </trkpt>
      <trkpt lat="48.37061" lon="5.05018">
        <ele>286.61</ele>
        <time>2010-06-17T14:59:47Z</time>
      </trkpt>
      <trkpt lat="48.37073" lon="5.04992">
        <ele>287.57</ele>
        <time>2010-06-17T15:00:00Z</time>
      </trkpt>
      <trkpt lat="48.37076" lon="5.04988">
        <ele>287.57</ele>
        <time>2010-06-17T15:00:02Z</time>
      </trkpt>
      <trkpt lat="48.37078" lon="5.04983">
        <ele>288.53</ele>
        <time>2010-06-17T15:00:05Z</time>
      </trkpt>
      <trkpt lat="48.37114" lon="5.04941">
        <ele>290.46</ele>
        <time>2010-06-17T15:00:20Z</time>
      </trkpt>
      <trkpt lat="48.37114" lon="5.04941">
        <ele>289.49</ele>
        <time>2010-06-17T15:00:37Z</time>
      </trkpt>
      <trkpt lat="48.37117" lon="5.04941">
        <ele>289.97</ele>
        <time>2010-06-17T15:01:05Z</time>
      </trkpt>
      <trkpt lat="48.37116" lon="5.04943">
        <ele>290.46</ele>
        <time>2010-06-17T15:01:23Z</time>
      </trkpt>
      <trkpt lat="48.37116" lon="5.04943">
        <ele>290.94</ele>
        <time>2010-06-17T15:01:41Z</time>
      </trkpt>
      <trkpt lat="48.37116" lon="5.04944">
        <ele>290.94</ele>
        <time>2010-06-17T15:01:43Z</time>
      </trkpt>
      <trkpt lat="48.37124" lon="5.04958">
        <ele>291.42</ele>
        <time>2010-06-17T15:01:49Z</time>
      </trkpt>
      <trkpt lat="48.37138" lon="5.04974">
        <ele>292.38</ele>
        <time>2010-06-17T15:01:58Z</time>
      </trkpt>
      <trkpt lat="48.37143" lon="5.0499">
        <ele>293.34</ele>
        <time>2010-06-17T15:02:03Z</time>
      </trkpt>
      <trkpt lat="48.37162" lon="5.05011">
        <ele>294.3</ele>
        <time>2010-06-17T15:02:12Z</time>
      </trkpt>
      <trkpt lat="48.37171" lon="5.05024">
        <ele>294.78</ele>
        <time>2010-06-17T15:02:17Z</time>
      </trkpt>
      <trkpt lat="48.37194" lon="5.05053">
        <ele>295.74</ele>
        <time>2010-06-17T15:02:29Z</time>
      </trkpt>
      <trkpt lat="48.37216" lon="5.05093">
        <ele>296.22</ele>
        <time>2010-06-17T15:02:40Z</time>
      </trkpt>
      <trkpt lat="48.37223" lon="5.05105">
        <ele>296.22</ele>
        <time>2010-06-17T15:02:44Z</time>
      </trkpt>
      <trkpt lat="48.37246" lon="5.0509">
        <ele>299.59</ele>
        <time>2010-06-17T15:02:51Z</time>
      </trkpt>
      <trkpt lat="48.37257" lon="5.05081">
        <ele>301.51</ele>
        <time>2010-06-17T15:02:57Z</time>
      </trkpt>
      <trkpt lat="48.37265" lon="5.0507">
        <ele>304.88</ele>
        <time>2010-06-17T15:03:05Z</time>
      </trkpt>
      <trkpt lat="48.37277" lon="5.05058">
        <ele>307.28</ele>
        <time>2010-06-17T15:03:13Z</time>
      </trkpt>
      <trkpt lat="48.37291" lon="5.0504">
        <ele>310.16</ele>
        <time>2010-06-17T15:03:24Z</time>
      </trkpt>
      <trkpt lat="48.37303" lon="5.05019">
        <ele>313.05</ele>
        <time>2010-06-17T15:03:35Z</time>
      </trkpt>
      <trkpt lat="48.37305" lon="5.0502">
        <ele>314.01</ele>
        <time>2010-06-17T15:03:39Z</time>
      </trkpt>
      <trkpt lat="48.3732" lon="5.05029">
        <ele>315.45</ele>
        <time>2010-06-17T15:03:52Z</time>
      </trkpt>
      <trkpt lat="48.37318" lon="5.05013">
        <ele>317.37</ele>
        <time>2010-06-17T15:04:04Z</time>
      </trkpt>
      <trkpt lat="48.37318" lon="5.05012">
        <ele>317.85</ele>
        <time>2010-06-17T15:04:08Z</time>
      </trkpt>
      <trkpt lat="48.37328" lon="5.05015">
        <ele>317.37</ele>
        <time>2010-06-17T15:04:23Z</time>
      </trkpt>
      <trkpt lat="48.37328" lon="5.05015">
        <ele>317.85</ele>
        <time>2010-06-17T15:04:45Z</time>
      </trkpt>
      <trkpt lat="48.37329" lon="5.05017">
        <ele>317.37</ele>
        <time>2010-06-17T15:05:09Z</time>
      </trkpt>
      <trkpt lat="48.37354" lon="5.05034">
        <ele>317.37</ele>
        <time>2010-06-17T15:05:21Z</time>
      </trkpt>
      <trkpt lat="48.37365" lon="5.05047">
        <ele>317.37</ele>
        <time>2010-06-17T15:05:28Z</time>
      </trkpt>
      <trkpt lat="48.37387" lon="5.05086">
        <ele>317.37</ele>
        <time>2010-06-17T15:05:39Z</time>
      </trkpt>
      <trkpt lat="48.37406" lon="5.05114">
        <ele>318.33</ele>
        <time>2010-06-17T15:05:48Z</time>
      </trkpt>
      <trkpt lat="48.37409" lon="5.05121">
        <ele>318.33</ele>
        <time>2010-06-17T15:05:50Z</time>
      </trkpt>
      <trkpt lat="48.37412" lon="5.05135">
        <ele>317.37</ele>
        <time>2010-06-17T15:05:53Z</time>
      </trkpt>
      <trkpt lat="48.3743" lon="5.05181">
        <ele>317.85</ele>
        <time>2010-06-17T15:06:04Z</time>
      </trkpt>
      <trkpt lat="48.37449" lon="5.05224">
        <ele>316.89</ele>
        <time>2010-06-17T15:06:13Z</time>
      </trkpt>
      <trkpt lat="48.37459" lon="5.05284">
        <ele>315.45</ele>
        <time>2010-06-17T15:06:26Z</time>
      </trkpt>
      <trkpt lat="48.37467" lon="5.05324">
        <ele>313.53</ele>
        <time>2010-06-17T15:06:32Z</time>
      </trkpt>
      <trkpt lat="48.37495" lon="5.05369">
        <ele>314.49</ele>
        <time>2010-06-17T15:06:44Z</time>
      </trkpt>
      <trkpt lat="48.375" lon="5.05377">
        <ele>314.49</ele>
        <time>2010-06-17T15:06:46Z</time>
      </trkpt>
      <trkpt lat="48.37514" lon="5.05397">
        <ele>314.01</ele>
        <time>2010-06-17T15:06:52Z</time>
      </trkpt>
      <trkpt lat="48.37543" lon="5.0543">
        <ele>314.49</ele>
        <time>2010-06-17T15:07:03Z</time>
      </trkpt>
      <trkpt lat="48.37551" lon="5.05439">
        <ele>314.01</ele>
        <time>2010-06-17T15:07:06Z</time>
      </trkpt>
      <trkpt lat="48.37584" lon="5.05477">
        <ele>314.97</ele>
        <time>2010-06-17T15:07:18Z</time>
      </trkpt>
      <trkpt lat="48.37618" lon="5.05497">
        <ele>316.41</ele>
        <time>2010-06-17T15:07:27Z</time>
      </trkpt>
      <trkpt lat="48.37635" lon="5.05513">
        <ele>318.33</ele>
        <time>2010-06-17T15:07:34Z</time>
      </trkpt>
      <trkpt lat="48.37672" lon="5.0552">
        <ele>320.74</ele>
        <time>2010-06-17T15:07:44Z</time>
      </trkpt>
      <trkpt lat="48.37675" lon="5.0552">
        <ele>321.22</ele>
        <time>2010-06-17T15:07:46Z</time>
      </trkpt>
      <trkpt lat="48.37691" lon="5.0551">
        <ele>321.22</ele>
        <time>2010-06-17T15:07:49Z</time>
      </trkpt>
      <trkpt lat="48.37686" lon="5.05469">
        <ele>321.7</ele>
        <time>2010-06-17T15:08:05Z</time>
      </trkpt>
      <trkpt lat="48.37675" lon="5.05427">
        <ele>321.7</ele>
        <time>2010-06-17T15:08:17Z</time>
      </trkpt>
      <trkpt lat="48.3766" lon="5.05362">
        <ele>323.62</ele>
        <time>2010-06-17T15:08:31Z</time>
      </trkpt>
      <trkpt lat="48.37647" lon="5.05275">
        <ele>323.62</ele>
        <time>2010-06-17T15:08:47Z</time>
      </trkpt>
      <trkpt lat="48.37648" lon="5.05236">
        <ele>323.14</ele>
        <time>2010-06-17T15:08:53Z</time>
      </trkpt>
      <trkpt lat="48.37648" lon="5.05229">
        <ele>323.14</ele>
        <time>2010-06-17T15:08:54Z</time>
      </trkpt>
      <trkpt lat="48.37656" lon="5.05095">
        <ele>320.26</ele>
        <time>2010-06-17T15:09:10Z</time>
      </trkpt>
      <trkpt lat="48.37678" lon="5.04987">
        <ele>317.85</ele>
        <time>2010-06-17T15:09:21Z</time>
      </trkpt>
      <trkpt lat="48.37691" lon="5.0495">
        <ele>319.3</ele>
        <time>2010-06-17T15:09:26Z</time>
      </trkpt>
      <trkpt lat="48.37696" lon="5.04921">
        <ele>320.26</ele>
        <time>2010-06-17T15:09:30Z</time>
      </trkpt>
      <trkpt lat="48.37698" lon="5.04907">
        <ele>319.78</ele>
        <time>2010-06-17T15:09:32Z</time>
      </trkpt>
      <trkpt lat="48.37716" lon="5.04803">
        <ele>319.78</ele>
        <time>2010-06-17T15:09:46Z</time>
      </trkpt>
      <trkpt lat="48.37751" lon="5.04646">
        <ele>318.33</ele>
        <time>2010-06-17T15:10:03Z</time>
      </trkpt>
      <trkpt lat="48.3776" lon="5.04509">
        <ele>316.41</ele>
        <time>2010-06-17T15:10:16Z</time>
      </trkpt>
      <trkpt lat="48.37764" lon="5.04374">
        <ele>314.97</ele>
        <time>2010-06-17T15:10:29Z</time>
      </trkpt>
      <trkpt lat="48.37763" lon="5.04216">
        <ele>314.01</ele>
        <time>2010-06-17T15:10:45Z</time>
      </trkpt>
      <trkpt lat="48.37764" lon="5.04064">
        <ele>312.09</ele>
        <time>2010-06-17T15:11:01Z</time>
      </trkpt>
      <trkpt lat="48.37763" lon="5.03899">
        <ele>311.6</ele>
        <time>2010-06-17T15:11:18Z</time>
      </trkpt>
      <trkpt lat="48.37763" lon="5.03879">
        <ele>311.12</ele>
        <time>2010-06-17T15:11:20Z</time>
      </trkpt>
      <trkpt lat="48.37762" lon="5.03869">
        <ele>311.12</ele>
        <time>2010-06-17T15:11:21Z</time>
      </trkpt>
      <trkpt lat="48.37763" lon="5.03859">
        <ele>310.64</ele>
        <time>2010-06-17T15:11:22Z</time>
      </trkpt>
      <trkpt lat="48.37774" lon="5.03745">
        <ele>308.24</ele>
        <time>2010-06-17T15:11:33Z</time>
      </trkpt>
      <trkpt lat="48.37783" lon="5.03639">
        <ele>304.39</ele>
        <time>2010-06-17T15:11:42Z</time>
      </trkpt>
      <trkpt lat="48.37782" lon="5.03626">
        <ele>304.39</ele>
        <time>2010-06-17T15:11:43Z</time>
      </trkpt>
      <trkpt lat="48.37767" lon="5.03546">
        <ele>301.51</ele>
        <time>2010-06-17T15:11:49Z</time>
      </trkpt>
      <trkpt lat="48.37763" lon="5.03533">
        <ele>301.03</ele>
        <time>2010-06-17T15:11:50Z</time>
      </trkpt>
      <trkpt lat="48.3774" lon="5.03468">
        <ele>297.67</ele>
        <time>2010-06-17T15:11:55Z</time>
      </trkpt>
      <trkpt lat="48.37716" lon="5.03414">
        <ele>294.3</ele>
        <time>2010-06-17T15:11:59Z</time>
      </trkpt>
      <trkpt lat="48.37709" lon="5.03401">
        <ele>294.3</ele>
        <time>2010-06-17T15:12:00Z</time>
      </trkpt>
      <trkpt lat="48.37682" lon="5.03354">
        <ele>290.94</ele>
        <time>2010-06-17T15:12:04Z</time>
      </trkpt>
      <trkpt lat="48.37669" lon="5.03334">
        <ele>287.57</ele>
        <time>2010-06-17T15:12:06Z</time>
      </trkpt>
      <trkpt lat="48.37654" lon="5.03314">
        <ele>284.69</ele>
        <time>2010-06-17T15:12:09Z</time>
      </trkpt>
      <trkpt lat="48.37639" lon="5.03291">
        <ele>281.32</ele>
        <time>2010-06-17T15:12:12Z</time>
      </trkpt>
      <trkpt lat="48.37624" lon="5.03271">
        <ele>278.44</ele>
        <time>2010-06-17T15:12:15Z</time>
      </trkpt>
      <trkpt lat="48.37616" lon="5.03256">
        <ele>276.04</ele>
        <time>2010-06-17T15:12:17Z</time>
      </trkpt>
      <trkpt lat="48.37612" lon="5.03247">
        <ele>274.59</ele>
        <time>2010-06-17T15:12:18Z</time>
      </trkpt>
      <trkpt lat="48.37609" lon="5.03238">
        <ele>273.15</ele>
        <time>2010-06-17T15:12:19Z</time>
      </trkpt>
      <trkpt lat="48.37606" lon="5.03229">
        <ele>272.19</ele>
        <time>2010-06-17T15:12:20Z</time>
      </trkpt>
      <trkpt lat="48.37603" lon="5.03219">
        <ele>271.23</ele>
        <time>2010-06-17T15:12:21Z</time>
      </trkpt>
      <trkpt lat="48.37594" lon="5.03175">
        <ele>266.9</ele>
        <time>2010-06-17T15:12:25Z</time>
      </trkpt>
      <trkpt lat="48.37588" lon="5.03136">
        <ele>263.06</ele>
        <time>2010-06-17T15:12:28Z</time>
      </trkpt>
      <trkpt lat="48.37584" lon="5.03097">
        <ele>259.21</ele>
        <time>2010-06-17T15:12:31Z</time>
      </trkpt>
      <trkpt lat="48.37582" lon="5.03069">
        <ele>255.85</ele>
        <time>2010-06-17T15:12:34Z</time>
      </trkpt>
      <trkpt lat="48.37581" lon="5.03062">
        <ele>254.89</ele>
        <time>2010-06-17T15:12:35Z</time>
      </trkpt>
      <trkpt lat="48.37579" lon="5.03056">
        <ele>254.41</ele>
        <time>2010-06-17T15:12:36Z</time>
      </trkpt>
      <trkpt lat="48.37575" lon="5.03053">
        <ele>252.96</ele>
        <time>2010-06-17T15:12:37Z</time>
      </trkpt>
      <trkpt lat="48.3757" lon="5.03051">
        <ele>252.96</ele>
        <time>2010-06-17T15:12:38Z</time>
      </trkpt>
      <trkpt lat="48.37563" lon="5.0305">
        <ele>252</ele>
        <time>2010-06-17T15:12:39Z</time>
      </trkpt>
      <trkpt lat="48.37556" lon="5.03051">
        <ele>250.08</ele>
        <time>2010-06-17T15:12:40Z</time>
      </trkpt>
      <trkpt lat="48.3755" lon="5.0305">
        <ele>249.6</ele>
        <time>2010-06-17T15:12:41Z</time>
      </trkpt>
      <trkpt lat="48.37537" lon="5.03048">
        <ele>247.68</ele>
        <time>2010-06-17T15:12:43Z</time>
      </trkpt>
      <trkpt lat="48.37525" lon="5.03041">
        <ele>245.75</ele>
        <time>2010-06-17T15:12:45Z</time>
      </trkpt>
      <trkpt lat="48.37519" lon="5.03037">
        <ele>245.27</ele>
        <time>2010-06-17T15:12:46Z</time>
      </trkpt>
      <trkpt lat="48.37514" lon="5.03032">
        <ele>243.35</ele>
        <time>2010-06-17T15:12:47Z</time>
      </trkpt>
      <trkpt lat="48.37509" lon="5.03027">
        <ele>242.39</ele>
        <time>2010-06-17T15:12:48Z</time>
      </trkpt>
      <trkpt lat="48.37506" lon="5.03023">
        <ele>241.43</ele>
        <time>2010-06-17T15:12:49Z</time>
      </trkpt>
      <trkpt lat="48.37504" lon="5.03018">
        <ele>240.95</ele>
        <time>2010-06-17T15:12:50Z</time>
      </trkpt>
      <trkpt lat="48.37501" lon="5.03014">
        <ele>239.99</ele>
        <time>2010-06-17T15:12:51Z</time>
      </trkpt>
      <trkpt lat="48.37499" lon="5.03009">
        <ele>239.51</ele>
        <time>2010-06-17T15:12:52Z</time>
      </trkpt>
      <trkpt lat="48.37497" lon="5.03004">
        <ele>239.02</ele>
        <time>2010-06-17T15:12:53Z</time>
      </trkpt>
      <trkpt lat="48.37495" lon="5.02998">
        <ele>238.54</ele>
        <time>2010-06-17T15:12:54Z</time>
      </trkpt>
      <trkpt lat="48.37495" lon="5.02992">
        <ele>238.54</ele>
        <time>2010-06-17T15:12:55Z</time>
      </trkpt>
      <trkpt lat="48.37495" lon="5.02985">
        <ele>237.58</ele>
        <time>2010-06-17T15:12:56Z</time>
      </trkpt>
      <trkpt lat="48.37497" lon="5.02978">
        <ele>237.58</ele>
        <time>2010-06-17T15:12:57Z</time>
      </trkpt>
      <trkpt lat="48.375" lon="5.02963">
        <ele>236.14</ele>
        <time>2010-06-17T15:12:59Z</time>
      </trkpt>
      <trkpt lat="48.37502" lon="5.02954">
        <ele>236.14</ele>
        <time>2010-06-17T15:13:00Z</time>
      </trkpt>
      <trkpt lat="48.37506" lon="5.02946">
        <ele>235.66</ele>
        <time>2010-06-17T15:13:01Z</time>
      </trkpt>
      <trkpt lat="48.37519" lon="5.02922">
        <ele>234.7</ele>
        <time>2010-06-17T15:13:04Z</time>
      </trkpt>
      <trkpt lat="48.37537" lon="5.02896">
        <ele>233.26</ele>
        <time>2010-06-17T15:13:08Z</time>
      </trkpt>
      <trkpt lat="48.3754" lon="5.02893">
        <ele>233.26</ele>
        <time>2010-06-17T15:13:09Z</time>
      </trkpt>
      <trkpt lat="48.37542" lon="5.02891">
        <ele>232.78</ele>
        <time>2010-06-17T15:13:10Z</time>
      </trkpt>
      <trkpt lat="48.37543" lon="5.0289">
        <ele>232.78</ele>
        <time>2010-06-17T15:13:11Z</time>
      </trkpt>
      <trkpt lat="48.37544" lon="5.02889">
        <ele>233.26</ele>
        <time>2010-06-17T15:13:26Z</time>
      </trkpt>
      <trkpt lat="48.37556" lon="5.02866">
        <ele>232.3</ele>
        <time>2010-06-17T15:13:38Z</time>
      </trkpt>
      <trkpt lat="48.37565" lon="5.02846">
        <ele>230.85</ele>
        <time>2010-06-17T15:13:41Z</time>
      </trkpt>
      <trkpt lat="48.37567" lon="5.02838">
        <ele>230.37</ele>
        <time>2010-06-17T15:13:42Z</time>
      </trkpt>
      <trkpt lat="48.37576" lon="5.0281">
        <ele>227.97</ele>
        <time>2010-06-17T15:13:45Z</time>
      </trkpt>
      <trkpt lat="48.37581" lon="5.02803">
        <ele>227.49</ele>
        <time>2010-06-17T15:13:46Z</time>
      </trkpt>
      <trkpt lat="48.37587" lon="5.02799">
        <ele>227.01</ele>
        <time>2010-06-17T15:13:47Z</time>
      </trkpt>
      <trkpt lat="48.37594" lon="5.02798">
        <ele>226.53</ele>
        <time>2010-06-17T15:13:48Z</time>
      </trkpt>
      <trkpt lat="48.37602" lon="5.02799">
        <ele>226.05</ele>
        <time>2010-06-17T15:13:49Z</time>
      </trkpt>
      <trkpt lat="48.37609" lon="5.02801">
        <ele>226.05</ele>
        <time>2010-06-17T15:13:50Z</time>
      </trkpt>
      <trkpt lat="48.37616" lon="5.02803">
        <ele>226.53</ele>
        <time>2010-06-17T15:13:51Z</time>
      </trkpt>
      <trkpt lat="48.37633" lon="5.02806">
        <ele>226.05</ele>
        <time>2010-06-17T15:13:54Z</time>
      </trkpt>
      <trkpt lat="48.37636" lon="5.02802">
        <ele>225.57</ele>
        <time>2010-06-17T15:13:55Z</time>
      </trkpt>
      <trkpt lat="48.37637" lon="5.02796">
        <ele>225.57</ele>
        <time>2010-06-17T15:13:56Z</time>
      </trkpt>
      <trkpt lat="48.37638" lon="5.02789">
        <ele>225.57</ele>
        <time>2010-06-17T15:13:57Z</time>
      </trkpt>
      <trkpt lat="48.37639" lon="5.02782">
        <ele>225.09</ele>
        <time>2010-06-17T15:13:58Z</time>
      </trkpt>
      <trkpt lat="48.37639" lon="5.02775">
        <ele>226.05</ele>
        <time>2010-06-17T15:13:59Z</time>
      </trkpt>
      <trkpt lat="48.37638" lon="5.0269">
        <ele>227.97</ele>
        <time>2010-06-17T15:14:13Z</time>
      </trkpt>
      <trkpt lat="48.3764" lon="5.02658">
        <ele>229.41</ele>
        <time>2010-06-17T15:14:22Z</time>
      </trkpt>
      <trkpt lat="48.37641" lon="5.02658">
        <ele>229.89</ele>
        <time>2010-06-17T15:14:35Z</time>
      </trkpt>
      <trkpt lat="48.3765" lon="5.02648">
        <ele>231.81</ele>
        <time>2010-06-17T15:14:51Z</time>
      </trkpt>
      <trkpt lat="48.37669" lon="5.02635">
        <ele>235.18</ele>
        <time>2010-06-17T15:15:03Z</time>
      </trkpt>
      <trkpt lat="48.3767" lon="5.02634">
        <ele>235.66</ele>
        <time>2010-06-17T15:15:04Z</time>
      </trkpt>
      <trkpt lat="48.37689" lon="5.02618">
        <ele>239.02</ele>
        <time>2010-06-17T15:15:18Z</time>
      </trkpt>
      <trkpt lat="48.37698" lon="5.02601">
        <ele>240.95</ele>
        <time>2010-06-17T15:15:27Z</time>
      </trkpt>
      <trkpt lat="48.37705" lon="5.0258">
        <ele>244.31</ele>
        <time>2010-06-17T15:15:38Z</time>
      </trkpt>
      <trkpt lat="48.37706" lon="5.02578">
        <ele>244.31</ele>
        <time>2010-06-17T15:15:39Z</time>
      </trkpt>
      <trkpt lat="48.37707" lon="5.02577">
        <ele>244.79</ele>
        <time>2010-06-17T15:15:40Z</time>
      </trkpt>
      <trkpt lat="48.37709" lon="5.02575">
        <ele>245.27</ele>
        <time>2010-06-17T15:15:41Z</time>
      </trkpt>
      <trkpt lat="48.37709" lon="5.02574">
        <ele>245.75</ele>
        <time>2010-06-17T15:15:42Z</time>
      </trkpt>
      <trkpt lat="48.3771" lon="5.02572">
        <ele>245.75</ele>
        <time>2010-06-17T15:15:43Z</time>
      </trkpt>
      <trkpt lat="48.3772" lon="5.02553">
        <ele>248.64</ele>
        <time>2010-06-17T15:15:54Z</time>
      </trkpt>
      <trkpt lat="48.37722" lon="5.02551">
        <ele>249.12</ele>
        <time>2010-06-17T15:15:55Z</time>
      </trkpt>
      <trkpt lat="48.37723" lon="5.0255">
        <ele>249.12</ele>
        <time>2010-06-17T15:15:56Z</time>
      </trkpt>
      <trkpt lat="48.37724" lon="5.0255">
        <ele>249.6</ele>
        <time>2010-06-17T15:15:57Z</time>
      </trkpt>
      <trkpt lat="48.37725" lon="5.0255">
        <ele>249.6</ele>
        <time>2010-06-17T15:15:58Z</time>
      </trkpt>
      <trkpt lat="48.37727" lon="5.02551">
        <ele>250.08</ele>
        <time>2010-06-17T15:15:59Z</time>
      </trkpt>
      <trkpt lat="48.37728" lon="5.02552">
        <ele>250.08</ele>
        <time>2010-06-17T15:16:00Z</time>
      </trkpt>
      <trkpt lat="48.37729" lon="5.02552">
        <ele>250.56</ele>
        <time>2010-06-17T15:16:01Z</time>
      </trkpt>
      <trkpt lat="48.3773" lon="5.02553">
        <ele>250.56</ele>
        <time>2010-06-17T15:16:02Z</time>
      </trkpt>
      <trkpt lat="48.37732" lon="5.02553">
        <ele>251.04</ele>
        <time>2010-06-17T15:16:03Z</time>
      </trkpt>
      <trkpt lat="48.37733" lon="5.02554">
        <ele>251.04</ele>
        <time>2010-06-17T15:16:04Z</time>
      </trkpt>
      <trkpt lat="48.37734" lon="5.02555">
        <ele>252</ele>
        <time>2010-06-17T15:16:05Z</time>
      </trkpt>
      <trkpt lat="48.37735" lon="5.02557">
        <ele>252.48</ele>
        <time>2010-06-17T15:16:06Z</time>
      </trkpt>
      <trkpt lat="48.37736" lon="5.02558">
        <ele>252</ele>
        <time>2010-06-17T15:16:07Z</time>
      </trkpt>
      <trkpt lat="48.37747" lon="5.02566">
        <ele>254.89</ele>
        <time>2010-06-17T15:16:17Z</time>
      </trkpt>
      <trkpt lat="48.37765" lon="5.02577">
        <ele>257.77</ele>
        <time>2010-06-17T15:16:30Z</time>
      </trkpt>
      <trkpt lat="48.37769" lon="5.0258">
        <ele>258.73</ele>
        <time>2010-06-17T15:16:33Z</time>
      </trkpt>
      <trkpt lat="48.37786" lon="5.0259">
        <ele>261.62</ele>
        <time>2010-06-17T15:16:46Z</time>
      </trkpt>
      <trkpt lat="48.37789" lon="5.02592">
        <ele>262.1</ele>
        <time>2010-06-17T15:16:49Z</time>
      </trkpt>
      <trkpt lat="48.3779" lon="5.02593">
        <ele>262.58</ele>
        <time>2010-06-17T15:16:50Z</time>
      </trkpt>
      <trkpt lat="48.37792" lon="5.02593">
        <ele>262.58</ele>
        <time>2010-06-17T15:16:51Z</time>
      </trkpt>
      <trkpt lat="48.37808" lon="5.02599">
        <ele>265.94</ele>
        <time>2010-06-17T15:17:03Z</time>
      </trkpt>
      <trkpt lat="48.37815" lon="5.02604">
        <ele>267.38</ele>
        <time>2010-06-17T15:17:09Z</time>
      </trkpt>
      <trkpt lat="48.37816" lon="5.02605">
        <ele>267.38</ele>
        <time>2010-06-17T15:17:10Z</time>
      </trkpt>
      <trkpt lat="48.37818" lon="5.02606">
        <ele>267.38</ele>
        <time>2010-06-17T15:17:11Z</time>
      </trkpt>
      <trkpt lat="48.37835" lon="5.02614">
        <ele>269.79</ele>
        <time>2010-06-17T15:17:22Z</time>
      </trkpt>
      <trkpt lat="48.37852" lon="5.02612">
        <ele>273.15</ele>
        <time>2010-06-17T15:17:33Z</time>
      </trkpt>
      <trkpt lat="48.37867" lon="5.02586">
        <ele>276.04</ele>
        <time>2010-06-17T15:17:49Z</time>
      </trkpt>
      <trkpt lat="48.37875" lon="5.02572">
        <ele>277.96</ele>
        <time>2010-06-17T15:17:57Z</time>
      </trkpt>
      <trkpt lat="48.37888" lon="5.02556">
        <ele>281.8</ele>
        <time>2010-06-17T15:18:09Z</time>
      </trkpt>
      <trkpt lat="48.3789" lon="5.02555">
        <ele>282.28</ele>
        <time>2010-06-17T15:18:10Z</time>
      </trkpt>
      <trkpt lat="48.37891" lon="5.02554">
        <ele>282.28</ele>
        <time>2010-06-17T15:18:11Z</time>
      </trkpt>
      <trkpt lat="48.37892" lon="5.02553">
        <ele>282.28</ele>
        <time>2010-06-17T15:18:12Z</time>
      </trkpt>
      <trkpt lat="48.37894" lon="5.02552">
        <ele>282.28</ele>
        <time>2010-06-17T15:18:13Z</time>
      </trkpt>
      <trkpt lat="48.37895" lon="5.02551">
        <ele>282.77</ele>
        <time>2010-06-17T15:18:14Z</time>
      </trkpt>
      <trkpt lat="48.37896" lon="5.02551">
        <ele>283.25</ele>
        <time>2010-06-17T15:18:15Z</time>
      </trkpt>
      <trkpt lat="48.37898" lon="5.0255">
        <ele>283.25</ele>
        <time>2010-06-17T15:18:16Z</time>
      </trkpt>
      <trkpt lat="48.379" lon="5.0255">
        <ele>283.73</ele>
        <time>2010-06-17T15:18:17Z</time>
      </trkpt>
      <trkpt lat="48.3792" lon="5.02535">
        <ele>286.61</ele>
        <time>2010-06-17T15:18:32Z</time>
      </trkpt>
      <trkpt lat="48.37941" lon="5.02519">
        <ele>288.05</ele>
        <time>2010-06-17T15:18:48Z</time>
      </trkpt>
      <trkpt lat="48.37961" lon="5.02503">
        <ele>289.49</ele>
        <time>2010-06-17T15:19:03Z</time>
      </trkpt>
      <trkpt lat="48.37984" lon="5.02481">
        <ele>292.38</ele>
        <time>2010-06-17T15:19:19Z</time>
      </trkpt>
      <trkpt lat="48.38009" lon="5.02452">
        <ele>295.26</ele>
        <time>2010-06-17T15:19:37Z</time>
      </trkpt>
      <trkpt lat="48.38028" lon="5.02425">
        <ele>297.18</ele>
        <time>2010-06-17T15:19:52Z</time>
      </trkpt>
      <trkpt lat="48.38042" lon="5.02404">
        <ele>298.63</ele>
        <time>2010-06-17T15:20:03Z</time>
      </trkpt>
      <trkpt lat="48.38066" lon="5.02369">
        <ele>300.55</ele>
        <time>2010-06-17T15:20:21Z</time>
      </trkpt>
      <trkpt lat="48.38097" lon="5.02341">
        <ele>302.47</ele>
        <time>2010-06-17T15:20:38Z</time>
      </trkpt>
      <trkpt lat="48.38133" lon="5.02314">
        <ele>304.39</ele>
        <time>2010-06-17T15:20:55Z</time>
      </trkpt>
      <trkpt lat="48.38181" lon="5.02285">
        <ele>306.32</ele>
        <time>2010-06-17T15:21:14Z</time>
      </trkpt>
      <trkpt lat="48.38234" lon="5.02254">
        <ele>308.72</ele>
        <time>2010-06-17T15:21:33Z</time>
      </trkpt>
      <trkpt lat="48.38287" lon="5.0222">
        <ele>309.68</ele>
        <time>2010-06-17T15:21:51Z</time>
      </trkpt>
      <trkpt lat="48.38308" lon="5.02204">
        <ele>309.2</ele>
        <time>2010-06-17T15:22:03Z</time>
      </trkpt>
      <trkpt lat="48.38308" lon="5.02204">
        <ele>309.2</ele>
        <time>2010-06-17T15:22:31Z</time>
      </trkpt>
      <trkpt lat="48.38308" lon="5.02204">
        <ele>309.68</ele>
        <time>2010-06-17T15:23:02Z</time>
      </trkpt>
      <trkpt lat="48.38308" lon="5.02204">
        <ele>309.68</ele>
        <time>2010-06-17T15:23:28Z</time>
      </trkpt>
      <trkpt lat="48.38317" lon="5.02198">
        <ele>309.68</ele>
        <time>2010-06-17T15:23:52Z</time>
      </trkpt>
      <trkpt lat="48.38369" lon="5.0216">
        <ele>308.72</ele>
        <time>2010-06-17T15:24:07Z</time>
      </trkpt>
      <trkpt lat="48.38435" lon="5.02097">
        <ele>306.8</ele>
        <time>2010-06-17T15:24:24Z</time>
      </trkpt>
      <trkpt lat="48.38489" lon="5.02041">
        <ele>305.84</ele>
        <time>2010-06-17T15:24:38Z</time>
      </trkpt>
      <trkpt lat="48.38511" lon="5.02016">
        <ele>305.36</ele>
        <time>2010-06-17T15:24:44Z</time>
      </trkpt>
      <trkpt lat="48.38515" lon="5.02011">
        <ele>305.36</ele>
        <time>2010-06-17T15:24:45Z</time>
      </trkpt>
      <trkpt lat="48.38519" lon="5.02007">
        <ele>305.84</ele>
        <time>2010-06-17T15:24:46Z</time>
      </trkpt>
      <trkpt lat="48.38556" lon="5.01967">
        <ele>306.32</ele>
        <time>2010-06-17T15:24:56Z</time>
      </trkpt>
      <trkpt lat="48.38599" lon="5.01923">
        <ele>306.8</ele>
        <time>2010-06-17T15:25:07Z</time>
      </trkpt>
      <trkpt lat="48.38674" lon="5.01892">
        <ele>307.28</ele>
        <time>2010-06-17T15:25:23Z</time>
      </trkpt>
      <trkpt lat="48.38708" lon="5.01881">
        <ele>307.28</ele>
        <time>2010-06-17T15:25:30Z</time>
      </trkpt>
      <trkpt lat="48.38713" lon="5.01879">
        <ele>307.28</ele>
        <time>2010-06-17T15:25:31Z</time>
      </trkpt>
      <trkpt lat="48.38718" lon="5.01877">
        <ele>307.76</ele>
        <time>2010-06-17T15:25:32Z</time>
      </trkpt>
      <trkpt lat="48.38723" lon="5.01874">
        <ele>306.8</ele>
        <time>2010-06-17T15:25:33Z</time>
      </trkpt>
      <trkpt lat="48.38728" lon="5.0187">
        <ele>306.8</ele>
        <time>2010-06-17T15:25:34Z</time>
      </trkpt>
      <trkpt lat="48.38732" lon="5.01865">
        <ele>306.8</ele>
        <time>2010-06-17T15:25:35Z</time>
      </trkpt>
      <trkpt lat="48.38736" lon="5.0186">
        <ele>306.8</ele>
        <time>2010-06-17T15:25:36Z</time>
      </trkpt>
      <trkpt lat="48.38805" lon="5.01779">
        <ele>304.88</ele>
        <time>2010-06-17T15:25:51Z</time>
      </trkpt>
      <trkpt lat="48.3881" lon="5.01773">
        <ele>304.88</ele>
        <time>2010-06-17T15:25:52Z</time>
      </trkpt>
      <trkpt lat="48.38836" lon="5.01743">
        <ele>303.43</ele>
        <time>2010-06-17T15:25:57Z</time>
      </trkpt>
      <trkpt lat="48.38894" lon="5.01681">
        <ele>301.03</ele>
        <time>2010-06-17T15:26:06Z</time>
      </trkpt>
      <trkpt lat="48.38902" lon="5.01676">
        <ele>300.07</ele>
        <time>2010-06-17T15:26:07Z</time>
      </trkpt>
      <trkpt lat="48.3891" lon="5.01672">
        <ele>300.07</ele>
        <time>2010-06-17T15:26:08Z</time>
      </trkpt>
      <trkpt lat="48.38999" lon="5.01602">
        <ele>297.18</ele>
        <time>2010-06-17T15:26:20Z</time>
      </trkpt>
      <trkpt lat="48.39111" lon="5.01514">
        <ele>294.78</ele>
        <time>2010-06-17T15:26:37Z</time>
      </trkpt>
      <trkpt lat="48.39144" lon="5.01489">
        <ele>295.74</ele>
        <time>2010-06-17T15:26:43Z</time>
      </trkpt>
      <trkpt lat="48.3918" lon="5.01462">
        <ele>298.15</ele>
        <time>2010-06-17T15:26:52Z</time>
      </trkpt>
      <trkpt lat="48.39183" lon="5.01458">
        <ele>298.63</ele>
        <time>2010-06-17T15:26:53Z</time>
      </trkpt>
      <trkpt lat="48.39186" lon="5.01455">
        <ele>299.11</ele>
        <time>2010-06-17T15:26:54Z</time>
      </trkpt>
      <trkpt lat="48.3919" lon="5.01452">
        <ele>299.11</ele>
        <time>2010-06-17T15:26:55Z</time>
      </trkpt>
      <trkpt lat="48.39193" lon="5.01451">
        <ele>299.59</ele>
        <time>2010-06-17T15:26:56Z</time>
      </trkpt>
      <trkpt lat="48.39197" lon="5.01451">
        <ele>300.07</ele>
        <time>2010-06-17T15:26:57Z</time>
      </trkpt>
      <trkpt lat="48.392" lon="5.01452">
        <ele>300.07</ele>
        <time>2010-06-17T15:26:58Z</time>
      </trkpt>
      <trkpt lat="48.39202" lon="5.01456">
        <ele>300.55</ele>
        <time>2010-06-17T15:26:59Z</time>
      </trkpt>
      <trkpt lat="48.39204" lon="5.0146">
        <ele>300.55</ele>
        <time>2010-06-17T15:27:00Z</time>
      </trkpt>
      <trkpt lat="48.39205" lon="5.01464">
        <ele>300.55</ele>
        <time>2010-06-17T15:27:01Z</time>
      </trkpt>
      <trkpt lat="48.39207" lon="5.01469">
        <ele>300.07</ele>
        <time>2010-06-17T15:27:02Z</time>
      </trkpt>
      <trkpt lat="48.39208" lon="5.01474">
        <ele>300.55</ele>
        <time>2010-06-17T15:27:03Z</time>
      </trkpt>
      <trkpt lat="48.3921" lon="5.01479">
        <ele>301.03</ele>
        <time>2010-06-17T15:27:04Z</time>
      </trkpt>
      <trkpt lat="48.39244" lon="5.01554">
        <ele>301.99</ele>
        <time>2010-06-17T15:27:21Z</time>
      </trkpt>
      <trkpt lat="48.39285" lon="5.0162">
        <ele>303.43</ele>
        <time>2010-06-17T15:27:36Z</time>
      </trkpt>
      <trkpt lat="48.39325" lon="5.01682">
        <ele>304.39</ele>
        <time>2010-06-17T15:27:52Z</time>
      </trkpt>
      <trkpt lat="48.39361" lon="5.01746">
        <ele>305.84</ele>
        <time>2010-06-17T15:28:08Z</time>
      </trkpt>
      <trkpt lat="48.39394" lon="5.01806">
        <ele>307.28</ele>
        <time>2010-06-17T15:28:24Z</time>
      </trkpt>
      <trkpt lat="48.39425" lon="5.01859">
        <ele>308.24</ele>
        <time>2010-06-17T15:28:39Z</time>
      </trkpt>
      <trkpt lat="48.39462" lon="5.01911">
        <ele>309.68</ele>
        <time>2010-06-17T15:28:55Z</time>
      </trkpt>
      <trkpt lat="48.39501" lon="5.01962">
        <ele>311.6</ele>
        <time>2010-06-17T15:29:11Z</time>
      </trkpt>
      <trkpt lat="48.39544" lon="5.02014">
        <ele>312.09</ele>
        <time>2010-06-17T15:29:26Z</time>
      </trkpt>
      <trkpt lat="48.39577" lon="5.0206">
        <ele>310.16</ele>
        <time>2010-06-17T15:29:35Z</time>
      </trkpt>
      <trkpt lat="48.3958" lon="5.02068">
        <ele>309.68</ele>
        <time>2010-06-17T15:29:36Z</time>
      </trkpt>
      <trkpt lat="48.39583" lon="5.02076">
        <ele>309.68</ele>
        <time>2010-06-17T15:29:37Z</time>
      </trkpt>
      <trkpt lat="48.39608" lon="5.02215">
        <ele>308.72</ele>
        <time>2010-06-17T15:29:54Z</time>
      </trkpt>
      <trkpt lat="48.39617" lon="5.0226">
        <ele>309.68</ele>
        <time>2010-06-17T15:30:00Z</time>
      </trkpt>
      <trkpt lat="48.39619" lon="5.02267">
        <ele>310.16</ele>
        <time>2010-06-17T15:30:01Z</time>
      </trkpt>
      <trkpt lat="48.39621" lon="5.02275">
        <ele>309.68</ele>
        <time>2010-06-17T15:30:02Z</time>
      </trkpt>
      <trkpt lat="48.39634" lon="5.02304">
        <ele>309.68</ele>
        <time>2010-06-17T15:30:06Z</time>
      </trkpt>
      <trkpt lat="48.39638" lon="5.0231">
        <ele>309.2</ele>
        <time>2010-06-17T15:30:07Z</time>
      </trkpt>
      <trkpt lat="48.39694" lon="5.02376">
        <ele>307.28</ele>
        <time>2010-06-17T15:30:21Z</time>
      </trkpt>
      <trkpt lat="48.39732" lon="5.02411">
        <ele>306.8</ele>
        <time>2010-06-17T15:30:30Z</time>
      </trkpt>
      <trkpt lat="48.39772" lon="5.02443">
        <ele>306.32</ele>
        <time>2010-06-17T15:30:39Z</time>
      </trkpt>
      <trkpt lat="48.39776" lon="5.02446">
        <ele>305.84</ele>
        <time>2010-06-17T15:30:40Z</time>
      </trkpt>
      <trkpt lat="48.39814" lon="5.0247">
        <ele>305.36</ele>
        <time>2010-06-17T15:30:49Z</time>
      </trkpt>
      <trkpt lat="48.39817" lon="5.02473">
        <ele>304.88</ele>
        <time>2010-06-17T15:30:50Z</time>
      </trkpt>
      <trkpt lat="48.3982" lon="5.02476">
        <ele>304.39</ele>
        <time>2010-06-17T15:30:51Z</time>
      </trkpt>
      <trkpt lat="48.39821" lon="5.02481">
        <ele>304.88</ele>
        <time>2010-06-17T15:30:52Z</time>
      </trkpt>
      <trkpt lat="48.3982" lon="5.02486">
        <ele>304.39</ele>
        <time>2010-06-17T15:30:53Z</time>
      </trkpt>
      <trkpt lat="48.39817" lon="5.0249">
        <ele>304.39</ele>
        <time>2010-06-17T15:30:54Z</time>
      </trkpt>
      <trkpt lat="48.39814" lon="5.02492">
        <ele>304.39</ele>
        <time>2010-06-17T15:30:55Z</time>
      </trkpt>
      <trkpt lat="48.3981" lon="5.02494">
        <ele>303.91</ele>
        <time>2010-06-17T15:30:56Z</time>
      </trkpt>
      <trkpt lat="48.39806" lon="5.02496">
        <ele>303.91</ele>
        <time>2010-06-17T15:30:57Z</time>
      </trkpt>
      <trkpt lat="48.39801" lon="5.02499">
        <ele>303.43</ele>
        <time>2010-06-17T15:30:58Z</time>
      </trkpt>
      <trkpt lat="48.39797" lon="5.02503">
        <ele>303.43</ele>
        <time>2010-06-17T15:30:59Z</time>
      </trkpt>
      <trkpt lat="48.39793" lon="5.02508">
        <ele>302.95</ele>
        <time>2010-06-17T15:31:00Z</time>
      </trkpt>
      <trkpt lat="48.39789" lon="5.02514">
        <ele>301.99</ele>
        <time>2010-06-17T15:31:01Z</time>
      </trkpt>
      <trkpt lat="48.39786" lon="5.02521">
        <ele>301.99</ele>
        <time>2010-06-17T15:31:02Z</time>
      </trkpt>
      <trkpt lat="48.39782" lon="5.02528">
        <ele>301.51</ele>
        <time>2010-06-17T15:31:03Z</time>
      </trkpt>
      <trkpt lat="48.3977" lon="5.02549">
        <ele>300.55</ele>
        <time>2010-06-17T15:31:06Z</time>
      </trkpt>
      <trkpt lat="48.3973" lon="5.02626">
        <ele>296.7</ele>
        <time>2010-06-17T15:31:15Z</time>
      </trkpt>
      <trkpt lat="48.39692" lon="5.02701">
        <ele>293.82</ele>
        <time>2010-06-17T15:31:23Z</time>
      </trkpt>
      <trkpt lat="48.39655" lon="5.02766">
        <ele>290.46</ele>
        <time>2010-06-17T15:31:30Z</time>
      </trkpt>
      <trkpt lat="48.39616" lon="5.02818">
        <ele>287.57</ele>
        <time>2010-06-17T15:31:36Z</time>
      </trkpt>
      <trkpt lat="48.39595" lon="5.02842">
        <ele>286.13</ele>
        <time>2010-06-17T15:31:39Z</time>
      </trkpt>
      <trkpt lat="48.39573" lon="5.02865">
        <ele>284.69</ele>
        <time>2010-06-17T15:31:42Z</time>
      </trkpt>
      <trkpt lat="48.39558" lon="5.02878">
        <ele>283.73</ele>
        <time>2010-06-17T15:31:44Z</time>
      </trkpt>
      <trkpt lat="48.3955" lon="5.02883">
        <ele>283.25</ele>
        <time>2010-06-17T15:31:45Z</time>
      </trkpt>
      <trkpt lat="48.39499" lon="5.029">
        <ele>280.36</ele>
        <time>2010-06-17T15:31:51Z</time>
      </trkpt>
      <trkpt lat="48.39484" lon="5.02907">
        <ele>278.92</ele>
        <time>2010-06-17T15:31:53Z</time>
      </trkpt>
      <trkpt lat="48.39437" lon="5.02949">
        <ele>276.04</ele>
        <time>2010-06-17T15:32:00Z</time>
      </trkpt>
      <trkpt lat="48.39417" lon="5.02971">
        <ele>274.11</ele>
        <time>2010-06-17T15:32:03Z</time>
      </trkpt>
      <trkpt lat="48.39399" lon="5.02991">
        <ele>272.67</ele>
        <time>2010-06-17T15:32:06Z</time>
      </trkpt>
      <trkpt lat="48.39391" lon="5.02998">
        <ele>271.23</ele>
        <time>2010-06-17T15:32:08Z</time>
      </trkpt>
      <trkpt lat="48.39388" lon="5.03003">
        <ele>271.23</ele>
        <time>2010-06-17T15:32:18Z</time>
      </trkpt>
      <trkpt lat="48.39385" lon="5.0301">
        <ele>270.75</ele>
        <time>2010-06-17T15:32:21Z</time>
      </trkpt>
      <trkpt lat="48.39384" lon="5.03013">
        <ele>270.75</ele>
        <time>2010-06-17T15:32:22Z</time>
      </trkpt>
      <trkpt lat="48.39382" lon="5.03016">
        <ele>270.27</ele>
        <time>2010-06-17T15:32:23Z</time>
      </trkpt>
      <trkpt lat="48.39378" lon="5.03019">
        <ele>269.79</ele>
        <time>2010-06-17T15:32:24Z</time>
      </trkpt>
      <trkpt lat="48.39374" lon="5.03022">
        <ele>270.27</ele>
        <time>2010-06-17T15:32:25Z</time>
      </trkpt>
      <trkpt lat="48.39368" lon="5.03025">
        <ele>269.79</ele>
        <time>2010-06-17T15:32:26Z</time>
      </trkpt>
      <trkpt lat="48.39314" lon="5.03048">
        <ele>267.38</ele>
        <time>2010-06-17T15:32:33Z</time>
      </trkpt>
      <trkpt lat="48.39269" lon="5.03056">
        <ele>264.98</ele>
        <time>2010-06-17T15:32:38Z</time>
      </trkpt>
      <trkpt lat="48.39248" lon="5.03059">
        <ele>264.02</ele>
        <time>2010-06-17T15:32:40Z</time>
      </trkpt>
      <trkpt lat="48.39239" lon="5.03061">
        <ele>263.54</ele>
        <time>2010-06-17T15:32:41Z</time>
      </trkpt>
      <trkpt lat="48.3923" lon="5.03064">
        <ele>263.54</ele>
        <time>2010-06-17T15:32:42Z</time>
      </trkpt>
      <trkpt lat="48.39191" lon="5.03083">
        <ele>261.14</ele>
        <time>2010-06-17T15:32:47Z</time>
      </trkpt>
      <trkpt lat="48.39166" lon="5.03098">
        <ele>259.69</ele>
        <time>2010-06-17T15:32:50Z</time>
      </trkpt>
      <trkpt lat="48.39157" lon="5.03106">
        <ele>259.21</ele>
        <time>2010-06-17T15:32:51Z</time>
      </trkpt>
      <trkpt lat="48.39151" lon="5.03116">
        <ele>258.25</ele>
        <time>2010-06-17T15:32:52Z</time>
      </trkpt>
      <trkpt lat="48.39145" lon="5.03127">
        <ele>258.25</ele>
        <time>2010-06-17T15:32:53Z</time>
      </trkpt>
      <trkpt lat="48.39116" lon="5.03211">
        <ele>254.89</ele>
        <time>2010-06-17T15:33:00Z</time>
      </trkpt>
      <trkpt lat="48.39111" lon="5.03222">
        <ele>254.41</ele>
        <time>2010-06-17T15:33:01Z</time>
      </trkpt>
      <trkpt lat="48.39105" lon="5.03232">
        <ele>253.93</ele>
        <time>2010-06-17T15:33:02Z</time>
      </trkpt>
      <trkpt lat="48.39098" lon="5.0324">
        <ele>253.44</ele>
        <time>2010-06-17T15:33:03Z</time>
      </trkpt>
      <trkpt lat="48.3909" lon="5.03246">
        <ele>252.96</ele>
        <time>2010-06-17T15:33:04Z</time>
      </trkpt>
      <trkpt lat="48.39082" lon="5.0325">
        <ele>252.48</ele>
        <time>2010-06-17T15:33:05Z</time>
      </trkpt>
      <trkpt lat="48.39074" lon="5.03251">
        <ele>252.96</ele>
        <time>2010-06-17T15:33:06Z</time>
      </trkpt>
      <trkpt lat="48.39067" lon="5.03248">
        <ele>252.48</ele>
        <time>2010-06-17T15:33:07Z</time>
      </trkpt>
      <trkpt lat="48.39059" lon="5.03243">
        <ele>252</ele>
        <time>2010-06-17T15:33:08Z</time>
      </trkpt>
      <trkpt lat="48.39053" lon="5.03237">
        <ele>252</ele>
        <time>2010-06-17T15:33:09Z</time>
      </trkpt>
      <trkpt lat="48.39047" lon="5.0323">
        <ele>252</ele>
        <time>2010-06-17T15:33:10Z</time>
      </trkpt>
      <trkpt lat="48.39041" lon="5.03222">
        <ele>251.52</ele>
        <time>2010-06-17T15:33:11Z</time>
      </trkpt>
      <trkpt lat="48.39007" lon="5.03167">
        <ele>251.04</ele>
        <time>2010-06-17T15:33:18Z</time>
      </trkpt>
      <trkpt lat="48.38966" lon="5.0306">
        <ele>251.04</ele>
        <time>2010-06-17T15:33:31Z</time>
      </trkpt>
      <trkpt lat="48.38963" lon="5.03053">
        <ele>251.52</ele>
        <time>2010-06-17T15:33:32Z</time>
      </trkpt>
      <trkpt lat="48.38947" lon="5.0303">
        <ele>251.04</ele>
        <time>2010-06-17T15:33:36Z</time>
      </trkpt>
      <trkpt lat="48.38939" lon="5.03022">
        <ele>251.04</ele>
        <time>2010-06-17T15:33:38Z</time>
      </trkpt>
      <trkpt lat="48.38934" lon="5.0302">
        <ele>251.52</ele>
        <time>2010-06-17T15:33:39Z</time>
      </trkpt>
      <trkpt lat="48.38918" lon="5.03017">
        <ele>251.04</ele>
        <time>2010-06-17T15:33:42Z</time>
      </trkpt>
      <trkpt lat="48.38913" lon="5.03017">
        <ele>251.04</ele>
        <time>2010-06-17T15:33:43Z</time>
      </trkpt>
      <trkpt lat="48.3886" lon="5.03015">
        <ele>249.12</ele>
        <time>2010-06-17T15:33:52Z</time>
      </trkpt>
      <trkpt lat="48.38835" lon="5.03011">
        <ele>249.12</ele>
        <time>2010-06-17T15:33:56Z</time>
      </trkpt>
      <trkpt lat="48.38829" lon="5.0301">
        <ele>248.64</ele>
        <time>2010-06-17T15:33:57Z</time>
      </trkpt>
      <trkpt lat="48.38771" lon="5.03">
        <ele>247.2</ele>
        <time>2010-06-17T15:34:06Z</time>
      </trkpt>
      <trkpt lat="48.3868" lon="5.02983">
        <ele>245.75</ele>
        <time>2010-06-17T15:34:19Z</time>
      </trkpt>
      <trkpt lat="48.38615" lon="5.02947">
        <ele>244.79</ele>
        <time>2010-06-17T15:34:29Z</time>
      </trkpt>
      <trkpt lat="48.38609" lon="5.02944">
        <ele>245.75</ele>
        <time>2010-06-17T15:34:30Z</time>
      </trkpt>
      <trkpt lat="48.38602" lon="5.02942">
        <ele>245.27</ele>
        <time>2010-06-17T15:34:31Z</time>
      </trkpt>
      <trkpt lat="48.38595" lon="5.02942">
        <ele>245.27</ele>
        <time>2010-06-17T15:34:32Z</time>
      </trkpt>
      <trkpt lat="48.38588" lon="5.02942">
        <ele>244.79</ele>
        <time>2010-06-17T15:34:33Z</time>
      </trkpt>
      <trkpt lat="48.38581" lon="5.02944">
        <ele>244.31</ele>
        <time>2010-06-17T15:34:34Z</time>
      </trkpt>
      <trkpt lat="48.38574" lon="5.02948">
        <ele>244.31</ele>
        <time>2010-06-17T15:34:35Z</time>
      </trkpt>
      <trkpt lat="48.38568" lon="5.02955">
        <ele>244.31</ele>
        <time>2010-06-17T15:34:36Z</time>
      </trkpt>
      <trkpt lat="48.38563" lon="5.02962">
        <ele>244.79</ele>
        <time>2010-06-17T15:34:37Z</time>
      </trkpt>
      <trkpt lat="48.38554" lon="5.02977">
        <ele>244.31</ele>
        <time>2010-06-17T15:34:39Z</time>
      </trkpt>
      <trkpt lat="48.38535" lon="5.03021">
        <ele>243.35</ele>
        <time>2010-06-17T15:34:44Z</time>
      </trkpt>
      <trkpt lat="48.38532" lon="5.03029">
        <ele>243.35</ele>
        <time>2010-06-17T15:34:45Z</time>
      </trkpt>
      <trkpt lat="48.38498" lon="5.03108">
        <ele>242.87</ele>
        <time>2010-06-17T15:34:54Z</time>
      </trkpt>
      <trkpt lat="48.38483" lon="5.03128">
        <ele>242.39</ele>
        <time>2010-06-17T15:34:57Z</time>
      </trkpt>
      <trkpt lat="48.38478" lon="5.03132">
        <ele>242.87</ele>
        <time>2010-06-17T15:34:58Z</time>
      </trkpt>
      <trkpt lat="48.38473" lon="5.03136">
        <ele>242.87</ele>
        <time>2010-06-17T15:34:59Z</time>
      </trkpt>
      <trkpt lat="48.38468" lon="5.03139">
        <ele>242.87</ele>
        <time>2010-06-17T15:35:00Z</time>
      </trkpt>
      <trkpt lat="48.38462" lon="5.03141">
        <ele>242.87</ele>
        <time>2010-06-17T15:35:01Z</time>
      </trkpt>
      <trkpt lat="48.38457" lon="5.03141">
        <ele>242.87</ele>
        <time>2010-06-17T15:35:02Z</time>
      </trkpt>
      <trkpt lat="48.38452" lon="5.03142">
        <ele>242.87</ele>
        <time>2010-06-17T15:35:03Z</time>
      </trkpt>
      <trkpt lat="48.38426" lon="5.03139">
        <ele>243.35</ele>
        <time>2010-06-17T15:35:08Z</time>
      </trkpt>
      <trkpt lat="48.3842" lon="5.03137">
        <ele>243.83</ele>
        <time>2010-06-17T15:35:09Z</time>
      </trkpt>
      <trkpt lat="48.38415" lon="5.03135">
        <ele>242.87</ele>
        <time>2010-06-17T15:35:10Z</time>
      </trkpt>
      <trkpt lat="48.3839" lon="5.03131">
        <ele>244.31</ele>
        <time>2010-06-17T15:35:15Z</time>
      </trkpt>
      <trkpt lat="48.38385" lon="5.03131">
        <ele>243.83</ele>
        <time>2010-06-17T15:35:16Z</time>
      </trkpt>
      <trkpt lat="48.3838" lon="5.03129">
        <ele>243.83</ele>
        <time>2010-06-17T15:35:17Z</time>
      </trkpt>
      <trkpt lat="48.38344" lon="5.03121">
        <ele>242.87</ele>
        <time>2010-06-17T15:35:24Z</time>
      </trkpt>
      <trkpt lat="48.38338" lon="5.03122">
        <ele>242.39</ele>
        <time>2010-06-17T15:35:25Z</time>
      </trkpt>
      <trkpt lat="48.38331" lon="5.03123">
        <ele>242.39</ele>
        <time>2010-06-17T15:35:26Z</time>
      </trkpt>
      <trkpt lat="48.38282" lon="5.03127">
        <ele>240.95</ele>
        <time>2010-06-17T15:35:33Z</time>
      </trkpt>
      <trkpt lat="48.38271" lon="5.03127">
        <ele>239.99</ele>
        <time>2010-06-17T15:35:35Z</time>
      </trkpt>
      <trkpt lat="48.38266" lon="5.0313">
        <ele>240.95</ele>
        <time>2010-06-17T15:35:36Z</time>
      </trkpt>
      <trkpt lat="48.38262" lon="5.03134">
        <ele>240.47</ele>
        <time>2010-06-17T15:35:37Z</time>
      </trkpt>
      <trkpt lat="48.38259" lon="5.03139">
        <ele>240.95</ele>
        <time>2010-06-17T15:35:38Z</time>
      </trkpt>
      <trkpt lat="48.38257" lon="5.03144">
        <ele>240.47</ele>
        <time>2010-06-17T15:35:39Z</time>
      </trkpt>
      <trkpt lat="48.38256" lon="5.03149">
        <ele>239.99</ele>
        <time>2010-06-17T15:35:40Z</time>
      </trkpt>
      <trkpt lat="48.38256" lon="5.03156">
        <ele>240.47</ele>
        <time>2010-06-17T15:35:41Z</time>
      </trkpt>
      <trkpt lat="48.38256" lon="5.03162">
        <ele>240.95</ele>
        <time>2010-06-17T15:35:42Z</time>
      </trkpt>
      <trkpt lat="48.38259" lon="5.03252">
        <ele>241.91</ele>
        <time>2010-06-17T15:35:57Z</time>
      </trkpt>
      <trkpt lat="48.38258" lon="5.03259">
        <ele>241.91</ele>
        <time>2010-06-17T15:35:58Z</time>
      </trkpt>
      <trkpt lat="48.38258" lon="5.03265">
        <ele>241.91</ele>
        <time>2010-06-17T15:35:59Z</time>
      </trkpt>
      <trkpt lat="48.38259" lon="5.03271">
        <ele>242.39</ele>
        <time>2010-06-17T15:36:00Z</time>
      </trkpt>
      <trkpt lat="48.38259" lon="5.03278">
        <ele>241.91</ele>
        <time>2010-06-17T15:36:01Z</time>
      </trkpt>
      <trkpt lat="48.3826" lon="5.03284">
        <ele>242.39</ele>
        <time>2010-06-17T15:36:02Z</time>
      </trkpt>
      <trkpt lat="48.38261" lon="5.03297">
        <ele>242.39</ele>
        <time>2010-06-17T15:36:04Z</time>
      </trkpt>
      <trkpt lat="48.38269" lon="5.0334">
        <ele>242.87</ele>
        <time>2010-06-17T15:36:11Z</time>
      </trkpt>
      <trkpt lat="48.38284" lon="5.034">
        <ele>243.83</ele>
        <time>2010-06-17T15:36:21Z</time>
      </trkpt>
      <trkpt lat="48.38286" lon="5.03413">
        <ele>243.83</ele>
        <time>2010-06-17T15:36:23Z</time>
      </trkpt>
      <trkpt lat="48.38288" lon="5.03419">
        <ele>243.83</ele>
        <time>2010-06-17T15:36:24Z</time>
      </trkpt>
      <trkpt lat="48.38292" lon="5.03431">
        <ele>244.31</ele>
        <time>2010-06-17T15:36:26Z</time>
      </trkpt>
      <trkpt lat="48.38293" lon="5.03438">
        <ele>243.83</ele>
        <time>2010-06-17T15:36:27Z</time>
      </trkpt>
      <trkpt lat="48.38294" lon="5.03444">
        <ele>244.31</ele>
        <time>2010-06-17T15:36:28Z</time>
      </trkpt>
      <trkpt lat="48.38297" lon="5.03458">
        <ele>243.83</ele>
        <time>2010-06-17T15:36:30Z</time>
      </trkpt>
      <trkpt lat="48.38316" lon="5.03544">
        <ele>244.79</ele>
        <time>2010-06-17T15:36:43Z</time>
      </trkpt>
      <trkpt lat="48.38317" lon="5.03551">
        <ele>244.79</ele>
        <time>2010-06-17T15:36:44Z</time>
      </trkpt>
      <trkpt lat="48.38318" lon="5.03557">
        <ele>245.27</ele>
        <time>2010-06-17T15:36:45Z</time>
      </trkpt>
      <trkpt lat="48.38319" lon="5.03564">
        <ele>245.27</ele>
        <time>2010-06-17T15:36:46Z</time>
      </trkpt>
      <trkpt lat="48.3832" lon="5.03571">
        <ele>245.75</ele>
        <time>2010-06-17T15:36:47Z</time>
      </trkpt>
      <trkpt lat="48.38326" lon="5.03639">
        <ele>246.23</ele>
        <time>2010-06-17T15:36:57Z</time>
      </trkpt>
      <trkpt lat="48.38326" lon="5.03652">
        <ele>246.23</ele>
        <time>2010-06-17T15:36:59Z</time>
      </trkpt>
      <trkpt lat="48.3832" lon="5.03762">
        <ele>247.68</ele>
        <time>2010-06-17T15:37:16Z</time>
      </trkpt>
      <trkpt lat="48.3832" lon="5.03769">
        <ele>247.68</ele>
        <time>2010-06-17T15:37:17Z</time>
      </trkpt>
      <trkpt lat="48.38316" lon="5.03881">
        <ele>248.64</ele>
        <time>2010-06-17T15:37:34Z</time>
      </trkpt>
      <trkpt lat="48.38317" lon="5.03887">
        <ele>249.12</ele>
        <time>2010-06-17T15:37:35Z</time>
      </trkpt>
      <trkpt lat="48.3832" lon="5.03915">
        <ele>248.64</ele>
        <time>2010-06-17T15:37:39Z</time>
      </trkpt>
      <trkpt lat="48.38321" lon="5.03921">
        <ele>249.12</ele>
        <time>2010-06-17T15:37:40Z</time>
      </trkpt>
      <trkpt lat="48.38322" lon="5.03927">
        <ele>249.12</ele>
        <time>2010-06-17T15:37:41Z</time>
      </trkpt>
      <trkpt lat="48.38324" lon="5.03933">
        <ele>250.56</ele>
        <time>2010-06-17T15:37:42Z</time>
      </trkpt>
      <trkpt lat="48.38326" lon="5.03939">
        <ele>249.6</ele>
        <time>2010-06-17T15:37:43Z</time>
      </trkpt>
      <trkpt lat="48.38348" lon="5.03988">
        <ele>250.08</ele>
        <time>2010-06-17T15:37:52Z</time>
      </trkpt>
      <trkpt lat="48.38359" lon="5.04008">
        <ele>250.56</ele>
        <time>2010-06-17T15:37:56Z</time>
      </trkpt>
      <trkpt lat="48.38399" lon="5.04061">
        <ele>252</ele>
        <time>2010-06-17T15:38:08Z</time>
      </trkpt>
      <trkpt lat="48.38406" lon="5.04068">
        <ele>252</ele>
        <time>2010-06-17T15:38:10Z</time>
      </trkpt>
      <trkpt lat="48.38421" lon="5.04082">
        <ele>252.48</ele>
        <time>2010-06-17T15:38:14Z</time>
      </trkpt>
      <trkpt lat="48.38488" lon="5.04109">
        <ele>253.44</ele>
        <time>2010-06-17T15:38:31Z</time>
      </trkpt>
      <trkpt lat="48.3849" lon="5.04114">
        <ele>253.44</ele>
        <time>2010-06-17T15:38:32Z</time>
      </trkpt>
      <trkpt lat="48.38491" lon="5.0412">
        <ele>253.44</ele>
        <time>2010-06-17T15:38:33Z</time>
      </trkpt>
      <trkpt lat="48.38489" lon="5.04126">
        <ele>253.44</ele>
        <time>2010-06-17T15:38:34Z</time>
      </trkpt>
      <trkpt lat="48.38486" lon="5.04132">
        <ele>253.44</ele>
        <time>2010-06-17T15:38:35Z</time>
      </trkpt>
      <trkpt lat="48.38484" lon="5.04138">
        <ele>252.48</ele>
        <time>2010-06-17T15:38:36Z</time>
      </trkpt>
      <trkpt lat="48.38482" lon="5.04145">
        <ele>253.44</ele>
        <time>2010-06-17T15:38:37Z</time>
      </trkpt>
      <trkpt lat="48.38482" lon="5.04152">
        <ele>252.48</ele>
        <time>2010-06-17T15:38:38Z</time>
      </trkpt>
      <trkpt lat="48.38482" lon="5.04159">
        <ele>252.96</ele>
        <time>2010-06-17T15:38:39Z</time>
      </trkpt>
      <trkpt lat="48.38481" lon="5.04166">
        <ele>252.96</ele>
        <time>2010-06-17T15:38:40Z</time>
      </trkpt>
      <trkpt lat="48.3848" lon="5.04173">
        <ele>252.96</ele>
        <time>2010-06-17T15:38:41Z</time>
      </trkpt>
      <trkpt lat="48.38472" lon="5.04227">
        <ele>253.93</ele>
        <time>2010-06-17T15:38:49Z</time>
      </trkpt>
      <trkpt lat="48.3847" lon="5.04233">
        <ele>254.41</ele>
        <time>2010-06-17T15:38:50Z</time>
      </trkpt>
      <trkpt lat="48.38466" lon="5.04245">
        <ele>254.41</ele>
        <time>2010-06-17T15:38:52Z</time>
      </trkpt>
      <trkpt lat="48.3846" lon="5.04262">
        <ele>254.89</ele>
        <time>2010-06-17T15:38:55Z</time>
      </trkpt>
      <trkpt lat="48.38458" lon="5.04267">
        <ele>254.89</ele>
        <time>2010-06-17T15:38:56Z</time>
      </trkpt>
      <trkpt lat="48.38455" lon="5.04273">
        <ele>254.89</ele>
        <time>2010-06-17T15:38:57Z</time>
      </trkpt>
      <trkpt lat="48.38452" lon="5.04278">
        <ele>255.37</ele>
        <time>2010-06-17T15:38:58Z</time>
      </trkpt>
      <trkpt lat="48.3845" lon="5.04283">
        <ele>255.37</ele>
        <time>2010-06-17T15:38:59Z</time>
      </trkpt>
      <trkpt lat="48.38424" lon="5.04349">
        <ele>256.81</ele>
        <time>2010-06-17T15:39:13Z</time>
      </trkpt>
      <trkpt lat="48.38409" lon="5.04399">
        <ele>258.25</ele>
        <time>2010-06-17T15:39:26Z</time>
      </trkpt>
      <trkpt lat="48.38407" lon="5.04455">
        <ele>258.73</ele>
        <time>2010-06-17T15:39:39Z</time>
      </trkpt>
      <trkpt lat="48.38413" lon="5.04513">
        <ele>259.21</ele>
        <time>2010-06-17T15:39:50Z</time>
      </trkpt>
      <trkpt lat="48.38423" lon="5.04578">
        <ele>260.17</ele>
        <time>2010-06-17T15:40:03Z</time>
      </trkpt>
      <trkpt lat="48.38443" lon="5.04639">
        <ele>261.62</ele>
        <time>2010-06-17T15:40:18Z</time>
      </trkpt>
      <trkpt lat="48.38459" lon="5.04684">
        <ele>262.58</ele>
        <time>2010-06-17T15:40:31Z</time>
      </trkpt>
      <trkpt lat="48.38468" lon="5.04727">
        <ele>264.02</ele>
        <time>2010-06-17T15:40:44Z</time>
      </trkpt>
      <trkpt lat="48.3847" lon="5.04761">
        <ele>264.5</ele>
        <time>2010-06-17T15:40:55Z</time>
      </trkpt>
      <trkpt lat="48.38478" lon="5.04803">
        <ele>265.94</ele>
        <time>2010-06-17T15:41:08Z</time>
      </trkpt>
      <trkpt lat="48.38497" lon="5.04845">
        <ele>266.42</ele>
        <time>2010-06-17T15:41:18Z</time>
      </trkpt>
      <trkpt lat="48.38515" lon="5.04889">
        <ele>267.38</ele>
        <time>2010-06-17T15:41:30Z</time>
      </trkpt>
      <trkpt lat="48.38524" lon="5.0493">
        <ele>268.35</ele>
        <time>2010-06-17T15:41:41Z</time>
      </trkpt>
      <trkpt lat="48.38536" lon="5.04959">
        <ele>268.83</ele>
        <time>2010-06-17T15:41:48Z</time>
      </trkpt>
      <trkpt lat="48.38537" lon="5.04963">
        <ele>268.83</ele>
        <time>2010-06-17T15:41:49Z</time>
      </trkpt>
      <trkpt lat="48.38538" lon="5.04967">
        <ele>269.31</ele>
        <time>2010-06-17T15:41:50Z</time>
      </trkpt>
      <trkpt lat="48.38539" lon="5.04971">
        <ele>268.83</ele>
        <time>2010-06-17T15:41:51Z</time>
      </trkpt>
      <trkpt lat="48.38541" lon="5.04975">
        <ele>269.31</ele>
        <time>2010-06-17T15:41:52Z</time>
      </trkpt>
      <trkpt lat="48.38559" lon="5.05026">
        <ele>270.27</ele>
        <time>2010-06-17T15:42:05Z</time>
      </trkpt>
      <trkpt lat="48.38567" lon="5.05043">
        <ele>270.27</ele>
        <time>2010-06-17T15:42:10Z</time>
      </trkpt>
      <trkpt lat="48.38567" lon="5.05047">
        <ele>270.27</ele>
        <time>2010-06-17T15:42:11Z</time>
      </trkpt>
      <trkpt lat="48.38568" lon="5.05051">
        <ele>270.75</ele>
        <time>2010-06-17T15:42:12Z</time>
      </trkpt>
      <trkpt lat="48.38569" lon="5.05055">
        <ele>270.75</ele>
        <time>2010-06-17T15:42:13Z</time>
      </trkpt>
      <trkpt lat="48.3857" lon="5.05059">
        <ele>270.75</ele>
        <time>2010-06-17T15:42:14Z</time>
      </trkpt>
      <trkpt lat="48.38572" lon="5.05063">
        <ele>270.75</ele>
        <time>2010-06-17T15:42:15Z</time>
      </trkpt>
      <trkpt lat="48.38582" lon="5.05102">
        <ele>270.75</ele>
        <time>2010-06-17T15:42:25Z</time>
      </trkpt>
      <trkpt lat="48.38587" lon="5.05141">
        <ele>274.59</ele>
        <time>2010-06-17T15:42:34Z</time>
      </trkpt>
      <trkpt lat="48.3859" lon="5.05157">
        <ele>271.71</ele>
        <time>2010-06-17T15:42:38Z</time>
      </trkpt>
      <trkpt lat="48.38588" lon="5.05196">
        <ele>272.19</ele>
        <time>2010-06-17T15:42:50Z</time>
      </trkpt>
      <trkpt lat="48.38593" lon="5.0523">
        <ele>273.15</ele>
        <time>2010-06-17T15:42:59Z</time>
      </trkpt>
      <trkpt lat="48.38632" lon="5.05263">
        <ele>274.59</ele>
        <time>2010-06-17T15:43:10Z</time>
      </trkpt>
      <trkpt lat="48.38657" lon="5.0529">
        <ele>275.07</ele>
        <time>2010-06-17T15:43:21Z</time>
      </trkpt>
      <trkpt lat="48.38674" lon="5.05319">
        <ele>276.04</ele>
        <time>2010-06-17T15:43:32Z</time>
      </trkpt>
      <trkpt lat="48.38687" lon="5.0534">
        <ele>277</ele>
        <time>2010-06-17T15:43:39Z</time>
      </trkpt>
      <trkpt lat="48.3869" lon="5.05351">
        <ele>277.48</ele>
        <time>2010-06-17T15:43:43Z</time>
      </trkpt>
      <trkpt lat="48.38692" lon="5.05359">
        <ele>277.96</ele>
        <time>2010-06-17T15:43:46Z</time>
      </trkpt>
      <trkpt lat="48.38714" lon="5.05394">
        <ele>279.4</ele>
        <time>2010-06-17T15:44:01Z</time>
      </trkpt>
      <trkpt lat="48.38718" lon="5.05401">
        <ele>279.88</ele>
        <time>2010-06-17T15:44:06Z</time>
      </trkpt>
      <trkpt lat="48.38763" lon="5.05439">
        <ele>280.84</ele>
        <time>2010-06-17T15:44:19Z</time>
      </trkpt>
      <trkpt lat="48.38812" lon="5.05481">
        <ele>281.8</ele>
        <time>2010-06-17T15:44:29Z</time>
      </trkpt>
      <trkpt lat="48.38828" lon="5.05507">
        <ele>282.77</ele>
        <time>2010-06-17T15:44:38Z</time>
      </trkpt>
      <trkpt lat="48.38834" lon="5.05518">
        <ele>282.77</ele>
        <time>2010-06-17T15:44:41Z</time>
      </trkpt>
      <trkpt lat="48.38842" lon="5.0556">
        <ele>284.21</ele>
        <time>2010-06-17T15:44:52Z</time>
      </trkpt>
      <trkpt lat="48.38859" lon="5.05602">
        <ele>285.17</ele>
        <time>2010-06-17T15:45:02Z</time>
      </trkpt>
      <trkpt lat="48.38862" lon="5.0561">
        <ele>285.17</ele>
        <time>2010-06-17T15:45:04Z</time>
      </trkpt>
      <trkpt lat="48.38877" lon="5.05652">
        <ele>285.65</ele>
        <time>2010-06-17T15:45:13Z</time>
      </trkpt>
      <trkpt lat="48.38877" lon="5.05655">
        <ele>286.13</ele>
        <time>2010-06-17T15:45:14Z</time>
      </trkpt>
      <trkpt lat="48.38878" lon="5.05659">
        <ele>285.65</ele>
        <time>2010-06-17T15:45:15Z</time>
      </trkpt>
      <trkpt lat="48.38886" lon="5.05698">
        <ele>288.05</ele>
        <time>2010-06-17T15:45:24Z</time>
      </trkpt>
      <trkpt lat="48.38893" lon="5.05739">
        <ele>288.05</ele>
        <time>2010-06-17T15:45:34Z</time>
      </trkpt>
      <trkpt lat="48.38908" lon="5.05794">
        <ele>289.97</ele>
        <time>2010-06-17T15:45:46Z</time>
      </trkpt>
      <trkpt lat="48.38914" lon="5.05814">
        <ele>289.97</ele>
        <time>2010-06-17T15:45:51Z</time>
      </trkpt>
      <trkpt lat="48.38914" lon="5.05832">
        <ele>290.46</ele>
        <time>2010-06-17T15:45:55Z</time>
      </trkpt>
      <trkpt lat="48.3891" lon="5.05872">
        <ele>291.42</ele>
        <time>2010-06-17T15:46:06Z</time>
      </trkpt>
      <trkpt lat="48.38913" lon="5.05919">
        <ele>293.34</ele>
        <time>2010-06-17T15:46:18Z</time>
      </trkpt>
      <trkpt lat="48.38914" lon="5.05963">
        <ele>294.3</ele>
        <time>2010-06-17T15:46:27Z</time>
      </trkpt>
      <trkpt lat="48.38919" lon="5.05989">
        <ele>294.78</ele>
        <time>2010-06-17T15:46:33Z</time>
      </trkpt>
      <trkpt lat="48.38918" lon="5.06026">
        <ele>295.26</ele>
        <time>2010-06-17T15:46:42Z</time>
      </trkpt>
      <trkpt lat="48.38919" lon="5.06081">
        <ele>297.18</ele>
        <time>2010-06-17T15:46:55Z</time>
      </trkpt>
      <trkpt lat="48.38916" lon="5.06116">
        <ele>297.67</ele>
        <time>2010-06-17T15:47:05Z</time>
      </trkpt>
      <trkpt lat="48.38916" lon="5.06125">
        <ele>298.63</ele>
        <time>2010-06-17T15:47:08Z</time>
      </trkpt>
      <trkpt lat="48.38927" lon="5.06168">
        <ele>299.59</ele>
        <time>2010-06-17T15:47:20Z</time>
      </trkpt>
      <trkpt lat="48.38927" lon="5.06192">
        <ele>300.07</ele>
        <time>2010-06-17T15:47:29Z</time>
      </trkpt>
      <trkpt lat="48.38927" lon="5.06244">
        <ele>301.03</ele>
        <time>2010-06-17T15:47:40Z</time>
      </trkpt>
      <trkpt lat="48.38931" lon="5.06273">
        <ele>302.95</ele>
        <time>2010-06-17T15:47:49Z</time>
      </trkpt>
      <trkpt lat="48.38943" lon="5.06321">
        <ele>303.91</ele>
        <time>2010-06-17T15:48:02Z</time>
      </trkpt>
      <trkpt lat="48.38956" lon="5.06363">
        <ele>305.36</ele>
        <time>2010-06-17T15:48:11Z</time>
      </trkpt>
      <trkpt lat="48.38956" lon="5.06365">
        <ele>305.36</ele>
        <time>2010-06-17T15:48:12Z</time>
      </trkpt>
      <trkpt lat="48.38963" lon="5.06398">
        <ele>305.84</ele>
        <time>2010-06-17T15:48:20Z</time>
      </trkpt>
      <trkpt lat="48.38969" lon="5.06411">
        <ele>305.84</ele>
        <time>2010-06-17T15:48:26Z</time>
      </trkpt>
      <trkpt lat="48.38974" lon="5.06415">
        <ele>305.36</ele>
        <time>2010-06-17T15:48:31Z</time>
      </trkpt>
      <trkpt lat="48.38981" lon="5.06438">
        <ele>307.28</ele>
        <time>2010-06-17T15:48:43Z</time>
      </trkpt>
      <trkpt lat="48.38981" lon="5.06441">
        <ele>307.28</ele>
        <time>2010-06-17T15:48:59Z</time>
      </trkpt>
      <trkpt lat="48.38981" lon="5.06441">
        <ele>307.76</ele>
        <time>2010-06-17T15:49:25Z</time>
      </trkpt>
      <trkpt lat="48.38982" lon="5.0644">
        <ele>307.28</ele>
        <time>2010-06-17T15:49:39Z</time>
      </trkpt>
      <trkpt lat="48.38997" lon="5.06457">
        <ele>310.64</ele>
        <time>2010-06-17T15:49:50Z</time>
      </trkpt>
      <trkpt lat="48.3901" lon="5.06472">
        <ele>314.01</ele>
        <time>2010-06-17T15:49:59Z</time>
      </trkpt>
      <trkpt lat="48.39016" lon="5.06482">
        <ele>316.89</ele>
        <time>2010-06-17T15:50:09Z</time>
      </trkpt>
      <trkpt lat="48.39038" lon="5.06497">
        <ele>319.78</ele>
        <time>2010-06-17T15:50:20Z</time>
      </trkpt>
      <trkpt lat="48.39049" lon="5.06498">
        <ele>321.22</ele>
        <time>2010-06-17T15:50:27Z</time>
      </trkpt>
      <trkpt lat="48.39066" lon="5.06498">
        <ele>323.62</ele>
        <time>2010-06-17T15:50:38Z</time>
      </trkpt>
      <trkpt lat="48.39086" lon="5.06496">
        <ele>326.02</ele>
        <time>2010-06-17T15:50:50Z</time>
      </trkpt>
      <trkpt lat="48.39088" lon="5.06495">
        <ele>326.5</ele>
        <time>2010-06-17T15:50:52Z</time>
      </trkpt>
      <trkpt lat="48.39091" lon="5.06495">
        <ele>327.47</ele>
        <time>2010-06-17T15:50:54Z</time>
      </trkpt>
      <trkpt lat="48.39094" lon="5.06498">
        <ele>327.47</ele>
        <time>2010-06-17T15:51:00Z</time>
      </trkpt>
      <trkpt lat="48.39106" lon="5.06517">
        <ele>327.95</ele>
        <time>2010-06-17T15:51:13Z</time>
      </trkpt>
      <trkpt lat="48.39109" lon="5.06521">
        <ele>328.91</ele>
        <time>2010-06-17T15:51:16Z</time>
      </trkpt>
      <trkpt lat="48.39113" lon="5.0653">
        <ele>328.91</ele>
        <time>2010-06-17T15:51:21Z</time>
      </trkpt>
      <trkpt lat="48.39115" lon="5.06533">
        <ele>328.91</ele>
        <time>2010-06-17T15:51:23Z</time>
      </trkpt>
      <trkpt lat="48.39119" lon="5.06542">
        <ele>329.39</ele>
        <time>2010-06-17T15:51:29Z</time>
      </trkpt>
      <trkpt lat="48.39121" lon="5.06547">
        <ele>329.87</ele>
        <time>2010-06-17T15:51:33Z</time>
      </trkpt>
      <trkpt lat="48.39131" lon="5.06565">
        <ele>330.35</ele>
        <time>2010-06-17T15:51:43Z</time>
      </trkpt>
      <trkpt lat="48.39139" lon="5.06576">
        <ele>330.83</ele>
        <time>2010-06-17T15:51:49Z</time>
      </trkpt>
      <trkpt lat="48.39147" lon="5.06592">
        <ele>331.31</ele>
        <time>2010-06-17T15:51:58Z</time>
      </trkpt>
      <trkpt lat="48.39154" lon="5.06608">
        <ele>331.31</ele>
        <time>2010-06-17T15:52:06Z</time>
      </trkpt>
      <trkpt lat="48.39156" lon="5.06622">
        <ele>331.31</ele>
        <time>2010-06-17T15:52:22Z</time>
      </trkpt>
      <trkpt lat="48.39156" lon="5.06622">
        <ele>331.79</ele>
        <time>2010-06-17T15:52:50Z</time>
      </trkpt>
      <trkpt lat="48.39156" lon="5.06622">
        <ele>331.31</ele>
        <time>2010-06-17T15:53:01Z</time>
      </trkpt>
      <trkpt lat="48.39149" lon="5.06635">
        <ele>331.31</ele>
        <time>2010-06-17T15:53:07Z</time>
      </trkpt>
      <trkpt lat="48.39137" lon="5.0668">
        <ele>329.87</ele>
        <time>2010-06-17T15:53:20Z</time>
      </trkpt>
      <trkpt lat="48.39137" lon="5.06696">
        <ele>328.43</ele>
        <time>2010-06-17T15:53:24Z</time>
      </trkpt>
      <trkpt lat="48.39169" lon="5.06728">
        <ele>328.91</ele>
        <time>2010-06-17T15:53:38Z</time>
      </trkpt>
      <trkpt lat="48.39186" lon="5.06752">
        <ele>330.35</ele>
        <time>2010-06-17T15:53:48Z</time>
      </trkpt>
      <trkpt lat="48.39181" lon="5.06774">
        <ele>328.43</ele>
        <time>2010-06-17T15:53:52Z</time>
      </trkpt>
      <trkpt lat="48.39167" lon="5.068">
        <ele>325.54</ele>
        <time>2010-06-17T15:53:55Z</time>
      </trkpt>
      <trkpt lat="48.39156" lon="5.06812">
        <ele>327.47</ele>
        <time>2010-06-17T15:53:58Z</time>
      </trkpt>
      <trkpt lat="48.39152" lon="5.06808">
        <ele>327.47</ele>
        <time>2010-06-17T15:54:00Z</time>
      </trkpt>
      <trkpt lat="48.39141" lon="5.06799">
        <ele>327.47</ele>
        <time>2010-06-17T15:54:04Z</time>
      </trkpt>
      <trkpt lat="48.39132" lon="5.06802">
        <ele>328.43</ele>
        <time>2010-06-17T15:54:08Z</time>
      </trkpt>
      <trkpt lat="48.3912" lon="5.06835">
        <ele>331.31</ele>
        <time>2010-06-17T15:54:19Z</time>
      </trkpt>
      <trkpt lat="48.39113" lon="5.06836">
        <ele>331.79</ele>
        <time>2010-06-17T15:54:23Z</time>
      </trkpt>
      <trkpt lat="48.39103" lon="5.06832">
        <ele>329.39</ele>
        <time>2010-06-17T15:54:27Z</time>
      </trkpt>
      <trkpt lat="48.39098" lon="5.06829">
        <ele>331.31</ele>
        <time>2010-06-17T15:54:29Z</time>
      </trkpt>
      <trkpt lat="48.39047" lon="5.06804">
        <ele>331.31</ele>
        <time>2010-06-17T15:54:45Z</time>
      </trkpt>
      <trkpt lat="48.39032" lon="5.06798">
        <ele>330.35</ele>
        <time>2010-06-17T15:54:49Z</time>
      </trkpt>
      <trkpt lat="48.38991" lon="5.0678">
        <ele>327.47</ele>
        <time>2010-06-17T15:54:58Z</time>
      </trkpt>
      <trkpt lat="48.38976" lon="5.06781">
        <ele>326.02</ele>
        <time>2010-06-17T15:55:01Z</time>
      </trkpt>
      <trkpt lat="48.38972" lon="5.06784">
        <ele>325.06</ele>
        <time>2010-06-17T15:55:02Z</time>
      </trkpt>
      <trkpt lat="48.38969" lon="5.06788">
        <ele>325.54</ele>
        <time>2010-06-17T15:55:03Z</time>
      </trkpt>
      <trkpt lat="48.38969" lon="5.06793">
        <ele>326.02</ele>
        <time>2010-06-17T15:55:04Z</time>
      </trkpt>
      <trkpt lat="48.38968" lon="5.06797">
        <ele>325.54</ele>
        <time>2010-06-17T15:55:05Z</time>
      </trkpt>
      <trkpt lat="48.38968" lon="5.068">
        <ele>326.02</ele>
        <time>2010-06-17T15:55:06Z</time>
      </trkpt>
      <trkpt lat="48.38967" lon="5.06804">
        <ele>326.02</ele>
        <time>2010-06-17T15:55:07Z</time>
      </trkpt>
      <trkpt lat="48.38967" lon="5.06808">
        <ele>326.02</ele>
        <time>2010-06-17T15:55:08Z</time>
      </trkpt>
      <trkpt lat="48.38958" lon="5.06866">
        <ele>328.91</ele>
        <time>2010-06-17T15:55:24Z</time>
      </trkpt>
      <trkpt lat="48.38951" lon="5.0691">
        <ele>331.79</ele>
        <time>2010-06-17T15:55:39Z</time>
      </trkpt>
      <trkpt lat="48.38945" lon="5.06935">
        <ele>333.23</ele>
        <time>2010-06-17T15:55:49Z</time>
      </trkpt>
      <trkpt lat="48.38945" lon="5.06938">
        <ele>333.23</ele>
        <time>2010-06-17T15:55:50Z</time>
      </trkpt>
      <trkpt lat="48.38944" lon="5.0694">
        <ele>333.23</ele>
        <time>2010-06-17T15:55:51Z</time>
      </trkpt>
      <trkpt lat="48.38944" lon="5.06943">
        <ele>333.71</ele>
        <time>2010-06-17T15:55:52Z</time>
      </trkpt>
      <trkpt lat="48.38943" lon="5.06946">
        <ele>333.71</ele>
        <time>2010-06-17T15:55:53Z</time>
      </trkpt>
      <trkpt lat="48.38934" lon="5.06979">
        <ele>335.64</ele>
        <time>2010-06-17T15:56:07Z</time>
      </trkpt>
      <trkpt lat="48.38917" lon="5.07018">
        <ele>337.56</ele>
        <time>2010-06-17T15:56:25Z</time>
      </trkpt>
      <trkpt lat="48.38895" lon="5.07061">
        <ele>339.96</ele>
        <time>2010-06-17T15:56:44Z</time>
      </trkpt>
      <trkpt lat="48.38866" lon="5.07105">
        <ele>342.37</ele>
        <time>2010-06-17T15:57:04Z</time>
      </trkpt>
      <trkpt lat="48.38849" lon="5.07134">
        <ele>341.41</ele>
        <time>2010-06-17T15:57:16Z</time>
      </trkpt>
      <trkpt lat="48.38843" lon="5.07143">
        <ele>347.17</ele>
        <time>2010-06-17T15:57:20Z</time>
      </trkpt>
      <trkpt lat="48.38842" lon="5.07145">
        <ele>345.25</ele>
        <time>2010-06-17T15:57:21Z</time>
      </trkpt>
      <trkpt lat="48.38839" lon="5.07149">
        <ele>344.29</ele>
        <time>2010-06-17T15:57:23Z</time>
      </trkpt>
      <trkpt lat="48.38807" lon="5.07178">
        <ele>346.69</ele>
        <time>2010-06-17T15:57:40Z</time>
      </trkpt>
      <trkpt lat="48.38779" lon="5.07198">
        <ele>346.69</ele>
        <time>2010-06-17T15:57:56Z</time>
      </trkpt>
      <trkpt lat="48.38771" lon="5.07204">
        <ele>346.69</ele>
        <time>2010-06-17T15:58:01Z</time>
      </trkpt>
      <trkpt lat="48.38771" lon="5.07205">
        <ele>346.69</ele>
        <time>2010-06-17T15:58:02Z</time>
      </trkpt>
      <trkpt lat="48.38769" lon="5.07206">
        <ele>346.69</ele>
        <time>2010-06-17T15:58:04Z</time>
      </trkpt>
      <trkpt lat="48.38767" lon="5.07207">
        <ele>346.69</ele>
        <time>2010-06-17T15:58:05Z</time>
      </trkpt>
      <trkpt lat="48.38766" lon="5.07208">
        <ele>346.69</ele>
        <time>2010-06-17T15:58:06Z</time>
      </trkpt>
      <trkpt lat="48.38765" lon="5.07209">
        <ele>346.69</ele>
        <time>2010-06-17T15:58:07Z</time>
      </trkpt>
      <trkpt lat="48.38764" lon="5.0721">
        <ele>346.69</ele>
        <time>2010-06-17T15:58:08Z</time>
      </trkpt>
      <trkpt lat="48.38762" lon="5.07211">
        <ele>346.69</ele>
        <time>2010-06-17T15:58:09Z</time>
      </trkpt>
      <trkpt lat="48.38761" lon="5.07213">
        <ele>346.69</ele>
        <time>2010-06-17T15:58:10Z</time>
      </trkpt>
      <trkpt lat="48.3876" lon="5.07215">
        <ele>346.69</ele>
        <time>2010-06-17T15:58:11Z</time>
      </trkpt>
      <trkpt lat="48.38758" lon="5.07216">
        <ele>346.21</ele>
        <time>2010-06-17T15:58:12Z</time>
      </trkpt>
      <trkpt lat="48.38757" lon="5.07218">
        <ele>346.21</ele>
        <time>2010-06-17T15:58:13Z</time>
      </trkpt>
      <trkpt lat="48.38726" lon="5.07236">
        <ele>344.29</ele>
        <time>2010-06-17T15:58:27Z</time>
      </trkpt>
      <trkpt lat="48.38722" lon="5.07236">
        <ele>344.29</ele>
        <time>2010-06-17T15:58:28Z</time>
      </trkpt>
      <trkpt lat="48.38718" lon="5.07234">
        <ele>344.29</ele>
        <time>2010-06-17T15:58:29Z</time>
      </trkpt>
      <trkpt lat="48.38715" lon="5.0723">
        <ele>343.81</ele>
        <time>2010-06-17T15:58:30Z</time>
      </trkpt>
      <trkpt lat="48.38712" lon="5.07226">
        <ele>343.81</ele>
        <time>2010-06-17T15:58:31Z</time>
      </trkpt>
      <trkpt lat="48.38709" lon="5.07221">
        <ele>343.81</ele>
        <time>2010-06-17T15:58:32Z</time>
      </trkpt>
      <trkpt lat="48.3868" lon="5.07174">
        <ele>344.29</ele>
        <time>2010-06-17T15:58:42Z</time>
      </trkpt>
      <trkpt lat="48.3867" lon="5.07161">
        <ele>344.29</ele>
        <time>2010-06-17T15:58:45Z</time>
      </trkpt>
      <trkpt lat="48.38667" lon="5.07157">
        <ele>344.29</ele>
        <time>2010-06-17T15:58:46Z</time>
      </trkpt>
      <trkpt lat="48.38644" lon="5.07122">
        <ele>343.33</ele>
        <time>2010-06-17T15:58:53Z</time>
      </trkpt>
      <trkpt lat="48.38642" lon="5.07117">
        <ele>343.81</ele>
        <time>2010-06-17T15:58:54Z</time>
      </trkpt>
      <trkpt lat="48.38636" lon="5.07106">
        <ele>344.29</ele>
        <time>2010-06-17T15:58:56Z</time>
      </trkpt>
      <trkpt lat="48.38614" lon="5.07075">
        <ele>343.81</ele>
        <time>2010-06-17T15:59:02Z</time>
      </trkpt>
      <trkpt lat="48.38592" lon="5.07038">
        <ele>343.81</ele>
        <time>2010-06-17T15:59:09Z</time>
      </trkpt>
      <trkpt lat="48.38572" lon="5.0701">
        <ele>343.81</ele>
        <time>2010-06-17T15:59:15Z</time>
      </trkpt>
      <trkpt lat="48.38569" lon="5.07005">
        <ele>344.29</ele>
        <time>2010-06-17T15:59:16Z</time>
      </trkpt>
      <trkpt lat="48.38544" lon="5.06966">
        <ele>344.77</ele>
        <time>2010-06-17T15:59:24Z</time>
      </trkpt>
      <trkpt lat="48.38541" lon="5.06961">
        <ele>344.77</ele>
        <time>2010-06-17T15:59:25Z</time>
      </trkpt>
      <trkpt lat="48.38537" lon="5.06957">
        <ele>345.25</ele>
        <time>2010-06-17T15:59:26Z</time>
      </trkpt>
      <trkpt lat="48.38534" lon="5.06953">
        <ele>345.25</ele>
        <time>2010-06-17T15:59:27Z</time>
      </trkpt>
      <trkpt lat="48.38531" lon="5.06949">
        <ele>345.25</ele>
        <time>2010-06-17T15:59:28Z</time>
      </trkpt>
      <trkpt lat="48.38528" lon="5.06944">
        <ele>345.25</ele>
        <time>2010-06-17T15:59:29Z</time>
      </trkpt>
      <trkpt lat="48.38526" lon="5.0694">
        <ele>345.25</ele>
        <time>2010-06-17T15:59:30Z</time>
      </trkpt>
      <trkpt lat="48.38523" lon="5.06935">
        <ele>345.25</ele>
        <time>2010-06-17T15:59:31Z</time>
      </trkpt>
      <trkpt lat="48.3852" lon="5.06931">
        <ele>345.25</ele>
        <time>2010-06-17T15:59:32Z</time>
      </trkpt>
      <trkpt lat="48.38517" lon="5.06927">
        <ele>345.73</ele>
        <time>2010-06-17T15:59:33Z</time>
      </trkpt>
      <trkpt lat="48.38511" lon="5.06918">
        <ele>345.73</ele>
        <time>2010-06-17T15:59:35Z</time>
      </trkpt>
      <trkpt lat="48.38508" lon="5.06914">
        <ele>345.73</ele>
        <time>2010-06-17T15:59:36Z</time>
      </trkpt>
      <trkpt lat="48.38502" lon="5.06905">
        <ele>345.73</ele>
        <time>2010-06-17T15:59:38Z</time>
      </trkpt>
      <trkpt lat="48.38498" lon="5.06901">
        <ele>345.73</ele>
        <time>2010-06-17T15:59:39Z</time>
      </trkpt>
      <trkpt lat="48.38495" lon="5.06896">
        <ele>345.73</ele>
        <time>2010-06-17T15:59:40Z</time>
      </trkpt>
      <trkpt lat="48.38492" lon="5.06891">
        <ele>345.73</ele>
        <time>2010-06-17T15:59:41Z</time>
      </trkpt>
      <trkpt lat="48.38489" lon="5.06886">
        <ele>345.25</ele>
        <time>2010-06-17T15:59:42Z</time>
      </trkpt>
      <trkpt lat="48.38486" lon="5.06881">
        <ele>345.73</ele>
        <time>2010-06-17T15:59:43Z</time>
      </trkpt>
      <trkpt lat="48.3847" lon="5.06858">
        <ele>345.73</ele>
        <time>2010-06-17T15:59:48Z</time>
      </trkpt>
      <trkpt lat="48.38467" lon="5.06853">
        <ele>345.73</ele>
        <time>2010-06-17T15:59:49Z</time>
      </trkpt>
      <trkpt lat="48.38448" lon="5.06825">
        <ele>345.73</ele>
        <time>2010-06-17T15:59:55Z</time>
      </trkpt>
      <trkpt lat="48.38445" lon="5.0682">
        <ele>345.73</ele>
        <time>2010-06-17T15:59:56Z</time>
      </trkpt>
      <trkpt lat="48.38436" lon="5.06808">
        <ele>346.21</ele>
        <time>2010-06-17T15:59:59Z</time>
      </trkpt>
      <trkpt lat="48.38431" lon="5.06807">
        <ele>345.73</ele>
        <time>2010-06-17T16:00:00Z</time>
      </trkpt>
      <trkpt lat="48.38427" lon="5.06805">
        <ele>345.25</ele>
        <time>2010-06-17T16:00:01Z</time>
      </trkpt>
      <trkpt lat="48.38422" lon="5.06806">
        <ele>345.73</ele>
        <time>2010-06-17T16:00:02Z</time>
      </trkpt>
      <trkpt lat="48.38417" lon="5.06808">
        <ele>345.25</ele>
        <time>2010-06-17T16:00:03Z</time>
      </trkpt>
      <trkpt lat="48.38412" lon="5.06811">
        <ele>344.77</ele>
        <time>2010-06-17T16:00:04Z</time>
      </trkpt>
      <trkpt lat="48.38407" lon="5.06816">
        <ele>344.77</ele>
        <time>2010-06-17T16:00:05Z</time>
      </trkpt>
      <trkpt lat="48.38402" lon="5.06823">
        <ele>343.81</ele>
        <time>2010-06-17T16:00:06Z</time>
      </trkpt>
      <trkpt lat="48.38398" lon="5.06831">
        <ele>343.33</ele>
        <time>2010-06-17T16:00:07Z</time>
      </trkpt>
      <trkpt lat="48.38396" lon="5.06841">
        <ele>343.33</ele>
        <time>2010-06-17T16:00:08Z</time>
      </trkpt>
      <trkpt lat="48.38395" lon="5.06851">
        <ele>342.85</ele>
        <time>2010-06-17T16:00:09Z</time>
      </trkpt>
      <trkpt lat="48.38396" lon="5.06863">
        <ele>341.89</ele>
        <time>2010-06-17T16:00:10Z</time>
      </trkpt>
      <trkpt lat="48.38398" lon="5.06874">
        <ele>341.89</ele>
        <time>2010-06-17T16:00:11Z</time>
      </trkpt>
      <trkpt lat="48.384" lon="5.06886">
        <ele>340.92</ele>
        <time>2010-06-17T16:00:12Z</time>
      </trkpt>
      <trkpt lat="48.38402" lon="5.06898">
        <ele>340.92</ele>
        <time>2010-06-17T16:00:13Z</time>
      </trkpt>
      <trkpt lat="48.3841" lon="5.06967">
        <ele>336.6</ele>
        <time>2010-06-17T16:00:18Z</time>
      </trkpt>
      <trkpt lat="48.38417" lon="5.07015">
        <ele>333.71</ele>
        <time>2010-06-17T16:00:21Z</time>
      </trkpt>
      <trkpt lat="48.38418" lon="5.07032">
        <ele>332.27</ele>
        <time>2010-06-17T16:00:22Z</time>
      </trkpt>
      <trkpt lat="48.38417" lon="5.0705">
        <ele>331.31</ele>
        <time>2010-06-17T16:00:23Z</time>
      </trkpt>
      <trkpt lat="48.38415" lon="5.07067">
        <ele>330.35</ele>
        <time>2010-06-17T16:00:24Z</time>
      </trkpt>
      <trkpt lat="48.38411" lon="5.07084">
        <ele>329.39</ele>
        <time>2010-06-17T16:00:25Z</time>
      </trkpt>
      <trkpt lat="48.38406" lon="5.07101">
        <ele>328.91</ele>
        <time>2010-06-17T16:00:26Z</time>
      </trkpt>
      <trkpt lat="48.38401" lon="5.07116">
        <ele>328.91</ele>
        <time>2010-06-17T16:00:27Z</time>
      </trkpt>
      <trkpt lat="48.38352" lon="5.07257">
        <ele>325.54</ele>
        <time>2010-06-17T16:00:38Z</time>
      </trkpt>
      <trkpt lat="48.38319" lon="5.0737">
        <ele>326.5</ele>
        <time>2010-06-17T16:00:51Z</time>
      </trkpt>
      <trkpt lat="48.38289" lon="5.07467">
        <ele>326.02</ele>
        <time>2010-06-17T16:01:04Z</time>
      </trkpt>
      <trkpt lat="48.38261" lon="5.07583">
        <ele>322.66</ele>
        <time>2010-06-17T16:01:17Z</time>
      </trkpt>
      <trkpt lat="48.38222" lon="5.07706">
        <ele>320.26</ele>
        <time>2010-06-17T16:01:30Z</time>
      </trkpt>
      <trkpt lat="48.38155" lon="5.07819">
        <ele>318.33</ele>
        <time>2010-06-17T16:01:46Z</time>
      </trkpt>
      <trkpt lat="48.38093" lon="5.07925">
        <ele>318.33</ele>
        <time>2010-06-17T16:02:02Z</time>
      </trkpt>
      <trkpt lat="48.38045" lon="5.08001">
        <ele>318.81</ele>
        <time>2010-06-17T16:02:15Z</time>
      </trkpt>
      <trkpt lat="48.3798" lon="5.08074">
        <ele>317.37</ele>
        <time>2010-06-17T16:02:32Z</time>
      </trkpt>
      <trkpt lat="48.37976" lon="5.08073">
        <ele>317.37</ele>
        <time>2010-06-17T16:02:33Z</time>
      </trkpt>
      <trkpt lat="48.37972" lon="5.08071">
        <ele>317.37</ele>
        <time>2010-06-17T16:02:34Z</time>
      </trkpt>
      <trkpt lat="48.37968" lon="5.0807">
        <ele>317.37</ele>
        <time>2010-06-17T16:02:35Z</time>
      </trkpt>
      <trkpt lat="48.37956" lon="5.08064">
        <ele>317.37</ele>
        <time>2010-06-17T16:02:38Z</time>
      </trkpt>
      <trkpt lat="48.37952" lon="5.08061">
        <ele>317.37</ele>
        <time>2010-06-17T16:02:39Z</time>
      </trkpt>
      <trkpt lat="48.37948" lon="5.08059">
        <ele>317.37</ele>
        <time>2010-06-17T16:02:40Z</time>
      </trkpt>
      <trkpt lat="48.3788" lon="5.08024">
        <ele>316.41</ele>
        <time>2010-06-17T16:02:54Z</time>
      </trkpt>
      <trkpt lat="48.37806" lon="5.07992">
        <ele>314.49</ele>
        <time>2010-06-17T16:03:07Z</time>
      </trkpt>
      <trkpt lat="48.37732" lon="5.0794">
        <ele>315.45</ele>
        <time>2010-06-17T16:03:22Z</time>
      </trkpt>
      <trkpt lat="48.37701" lon="5.07922">
        <ele>315.93</ele>
        <time>2010-06-17T16:03:30Z</time>
      </trkpt>
      <trkpt lat="48.37699" lon="5.07924">
        <ele>315.93</ele>
        <time>2010-06-17T16:03:31Z</time>
      </trkpt>
      <trkpt lat="48.37699" lon="5.07937">
        <ele>315.93</ele>
        <time>2010-06-17T16:03:35Z</time>
      </trkpt>
      <trkpt lat="48.37733" lon="5.07995">
        <ele>315.93</ele>
        <time>2010-06-17T16:03:50Z</time>
      </trkpt>
      <trkpt lat="48.37742" lon="5.0801">
        <ele>315.45</ele>
        <time>2010-06-17T16:03:53Z</time>
      </trkpt>
      <trkpt lat="48.37771" lon="5.08064">
        <ele>313.05</ele>
        <time>2010-06-17T16:04:01Z</time>
      </trkpt>
      <trkpt lat="48.37775" lon="5.08072">
        <ele>312.57</ele>
        <time>2010-06-17T16:04:02Z</time>
      </trkpt>
      <trkpt lat="48.37779" lon="5.0808">
        <ele>312.09</ele>
        <time>2010-06-17T16:04:03Z</time>
      </trkpt>
      <trkpt lat="48.37831" lon="5.08193">
        <ele>312.09</ele>
        <time>2010-06-17T16:04:18Z</time>
      </trkpt>
      <trkpt lat="48.3788" lon="5.08307">
        <ele>313.05</ele>
        <time>2010-06-17T16:04:37Z</time>
      </trkpt>
      <trkpt lat="48.37882" lon="5.08313">
        <ele>313.05</ele>
        <time>2010-06-17T16:04:38Z</time>
      </trkpt>
      <trkpt lat="48.379" lon="5.08376">
        <ele>313.53</ele>
        <time>2010-06-17T16:04:49Z</time>
      </trkpt>
      <trkpt lat="48.37899" lon="5.08382">
        <ele>313.53</ele>
        <time>2010-06-17T16:04:50Z</time>
      </trkpt>
      <trkpt lat="48.37898" lon="5.08389">
        <ele>313.53</ele>
        <time>2010-06-17T16:04:51Z</time>
      </trkpt>
      <trkpt lat="48.37896" lon="5.08395">
        <ele>313.05</ele>
        <time>2010-06-17T16:04:52Z</time>
      </trkpt>
      <trkpt lat="48.37893" lon="5.08401">
        <ele>313.05</ele>
        <time>2010-06-17T16:04:53Z</time>
      </trkpt>
      <trkpt lat="48.37843" lon="5.08502">
        <ele>312.57</ele>
        <time>2010-06-17T16:05:10Z</time>
      </trkpt>
      <trkpt lat="48.37818" lon="5.08536">
        <ele>312.57</ele>
        <time>2010-06-17T16:05:17Z</time>
      </trkpt>
      <trkpt lat="48.37783" lon="5.0858">
        <ele>314.97</ele>
        <time>2010-06-17T16:05:30Z</time>
      </trkpt>
      <trkpt lat="48.37757" lon="5.08613">
        <ele>317.85</ele>
        <time>2010-06-17T16:05:42Z</time>
      </trkpt>
      <trkpt lat="48.3774" lon="5.08619">
        <ele>319.78</ele>
        <time>2010-06-17T16:05:50Z</time>
      </trkpt>
      <trkpt lat="48.37737" lon="5.08618">
        <ele>320.26</ele>
        <time>2010-06-17T16:05:51Z</time>
      </trkpt>
      <trkpt lat="48.37701" lon="5.08599">
        <ele>321.7</ele>
        <time>2010-06-17T16:06:06Z</time>
      </trkpt>
      <trkpt lat="48.37663" lon="5.08586">
        <ele>325.06</ele>
        <time>2010-06-17T16:06:21Z</time>
      </trkpt>
      <trkpt lat="48.37619" lon="5.08577">
        <ele>327.95</ele>
        <time>2010-06-17T16:06:37Z</time>
      </trkpt>
      <trkpt lat="48.37563" lon="5.08571">
        <ele>330.35</ele>
        <time>2010-06-17T16:06:56Z</time>
      </trkpt>
      <trkpt lat="48.37521" lon="5.08571">
        <ele>331.79</ele>
        <time>2010-06-17T16:07:10Z</time>
      </trkpt>
      <trkpt lat="48.37462" lon="5.08573">
        <ele>334.68</ele>
        <time>2010-06-17T16:07:29Z</time>
      </trkpt>
      <trkpt lat="48.37413" lon="5.08585">
        <ele>336.6</ele>
        <time>2010-06-17T16:07:45Z</time>
      </trkpt>
      <trkpt lat="48.37378" lon="5.08583">
        <ele>339.48</ele>
        <time>2010-06-17T16:07:57Z</time>
      </trkpt>
      <trkpt lat="48.37337" lon="5.08562">
        <ele>342.85</ele>
        <time>2010-06-17T16:08:12Z</time>
      </trkpt>
      <trkpt lat="48.373" lon="5.08545">
        <ele>345.25</ele>
        <time>2010-06-17T16:08:27Z</time>
      </trkpt>
      <trkpt lat="48.37298" lon="5.08545">
        <ele>345.73</ele>
        <time>2010-06-17T16:08:39Z</time>
      </trkpt>
      <trkpt lat="48.37298" lon="5.08545">
        <ele>345.73</ele>
        <time>2010-06-17T16:08:41Z</time>
      </trkpt>
      <trkpt lat="48.37297" lon="5.08545">
        <ele>345.73</ele>
        <time>2010-06-17T16:08:42Z</time>
      </trkpt>
      <trkpt lat="48.37295" lon="5.08545">
        <ele>346.21</ele>
        <time>2010-06-17T16:08:43Z</time>
      </trkpt>
      <trkpt lat="48.37267" lon="5.08531">
        <ele>347.65</ele>
        <time>2010-06-17T16:08:57Z</time>
      </trkpt>
      <trkpt lat="48.37232" lon="5.08514">
        <ele>349.58</ele>
        <time>2010-06-17T16:09:11Z</time>
      </trkpt>
      <trkpt lat="48.37193" lon="5.08499">
        <ele>352.46</ele>
        <time>2010-06-17T16:09:23Z</time>
      </trkpt>
      <trkpt lat="48.37151" lon="5.08482">
        <ele>354.86</ele>
        <time>2010-06-17T16:09:37Z</time>
      </trkpt>
      <trkpt lat="48.37117" lon="5.08472">
        <ele>357.75</ele>
        <time>2010-06-17T16:09:50Z</time>
      </trkpt>
      <trkpt lat="48.37087" lon="5.08468">
        <ele>361.11</ele>
        <time>2010-06-17T16:10:04Z</time>
      </trkpt>
      <trkpt lat="48.37079" lon="5.08468">
        <ele>362.07</ele>
        <time>2010-06-17T16:10:08Z</time>
      </trkpt>
      <trkpt lat="48.37047" lon="5.08461">
        <ele>365.44</ele>
        <time>2010-06-17T16:10:21Z</time>
      </trkpt>
      <trkpt lat="48.37016" lon="5.08446">
        <ele>367.84</ele>
        <time>2010-06-17T16:10:35Z</time>
      </trkpt>
      <trkpt lat="48.36972" lon="5.08426">
        <ele>370.73</ele>
        <time>2010-06-17T16:10:54Z</time>
      </trkpt>
      <trkpt lat="48.36922" lon="5.08399">
        <ele>372.17</ele>
        <time>2010-06-17T16:11:12Z</time>
      </trkpt>
      <trkpt lat="48.36898" lon="5.08381">
        <ele>372.65</ele>
        <time>2010-06-17T16:11:23Z</time>
      </trkpt>
      <trkpt lat="48.36878" lon="5.08359">
        <ele>372.65</ele>
        <time>2010-06-17T16:11:33Z</time>
      </trkpt>
      <trkpt lat="48.36855" lon="5.08335">
        <ele>372.65</ele>
        <time>2010-06-17T16:11:46Z</time>
      </trkpt>
      <trkpt lat="48.3685" lon="5.0833">
        <ele>372.17</ele>
        <time>2010-06-17T16:11:49Z</time>
      </trkpt>
      <trkpt lat="48.36849" lon="5.08328">
        <ele>372.65</ele>
        <time>2010-06-17T16:11:50Z</time>
      </trkpt>
      <trkpt lat="48.36847" lon="5.08326">
        <ele>372.17</ele>
        <time>2010-06-17T16:11:51Z</time>
      </trkpt>
      <trkpt lat="48.36815" lon="5.08291">
        <ele>371.69</ele>
        <time>2010-06-17T16:12:06Z</time>
      </trkpt>
      <trkpt lat="48.3681" lon="5.08287">
        <ele>371.69</ele>
        <time>2010-06-17T16:12:16Z</time>
      </trkpt>
      <trkpt lat="48.3681" lon="5.08287">
        <ele>371.69</ele>
        <time>2010-06-17T16:12:39Z</time>
      </trkpt>
      <trkpt lat="48.3681" lon="5.08287">
        <ele>371.69</ele>
        <time>2010-06-17T16:13:03Z</time>
      </trkpt>
      <trkpt lat="48.3681" lon="5.08287">
        <ele>371.69</ele>
        <time>2010-06-17T16:13:40Z</time>
      </trkpt>
      <trkpt lat="48.3681" lon="5.08287">
        <ele>371.69</ele>
        <time>2010-06-17T16:14:04Z</time>
      </trkpt>
      <trkpt lat="48.36807" lon="5.08284">
        <ele>371.69</ele>
        <time>2010-06-17T16:14:08Z</time>
      </trkpt>
      <trkpt lat="48.36806" lon="5.08283">
        <ele>371.21</ele>
        <time>2010-06-17T16:14:09Z</time>
      </trkpt>
      <trkpt lat="48.36805" lon="5.08282">
        <ele>371.21</ele>
        <time>2010-06-17T16:14:10Z</time>
      </trkpt>
      <trkpt lat="48.36804" lon="5.08281">
        <ele>371.69</ele>
        <time>2010-06-17T16:14:11Z</time>
      </trkpt>
      <trkpt lat="48.36804" lon="5.08279">
        <ele>371.21</ele>
        <time>2010-06-17T16:14:12Z</time>
      </trkpt>
      <trkpt lat="48.36803" lon="5.08278">
        <ele>371.69</ele>
        <time>2010-06-17T16:14:13Z</time>
      </trkpt>
      <trkpt lat="48.36802" lon="5.08277">
        <ele>371.21</ele>
        <time>2010-06-17T16:14:14Z</time>
      </trkpt>
      <trkpt lat="48.368" lon="5.08278">
        <ele>371.21</ele>
        <time>2010-06-17T16:14:15Z</time>
      </trkpt>
      <trkpt lat="48.368" lon="5.0828">
        <ele>371.21</ele>
        <time>2010-06-17T16:14:16Z</time>
      </trkpt>
      <trkpt lat="48.3681" lon="5.08287">
        <ele>371.69</ele>
        <time>2010-06-17T16:14:23Z</time>
      </trkpt>
      <trkpt lat="48.36817" lon="5.08276">
        <ele>372.17</ele>
        <time>2010-06-17T16:14:30Z</time>
      </trkpt>
      <trkpt lat="48.36832" lon="5.08253">
        <ele>373.13</ele>
        <time>2010-06-17T16:14:40Z</time>
      </trkpt>
      <trkpt lat="48.36834" lon="5.0825">
        <ele>373.13</ele>
        <time>2010-06-17T16:14:42Z</time>
      </trkpt>
      <trkpt lat="48.36847" lon="5.0824">
        <ele>373.13</ele>
        <time>2010-06-17T16:14:49Z</time>
      </trkpt>
      <trkpt lat="48.36866" lon="5.08213">
        <ele>373.13</ele>
        <time>2010-06-17T16:14:59Z</time>
      </trkpt>
      <trkpt lat="48.36895" lon="5.08176">
        <ele>371.21</ele>
        <time>2010-06-17T16:15:11Z</time>
      </trkpt>
      <trkpt lat="48.36939" lon="5.08134">
        <ele>369.28</ele>
        <time>2010-06-17T16:15:22Z</time>
      </trkpt>
      <trkpt lat="48.36944" lon="5.0813">
        <ele>368.32</ele>
        <time>2010-06-17T16:15:23Z</time>
      </trkpt>
      <trkpt lat="48.36949" lon="5.08127">
        <ele>367.84</ele>
        <time>2010-06-17T16:15:24Z</time>
      </trkpt>
      <trkpt lat="48.36954" lon="5.08124">
        <ele>367.36</ele>
        <time>2010-06-17T16:15:25Z</time>
      </trkpt>
      <trkpt lat="48.36979" lon="5.081">
        <ele>364.96</ele>
        <time>2010-06-17T16:15:32Z</time>
      </trkpt>
      <trkpt lat="48.36978" lon="5.08098">
        <ele>364.96</ele>
        <time>2010-06-17T16:15:33Z</time>
      </trkpt>
      <trkpt lat="48.36978" lon="5.08095">
        <ele>365.44</ele>
        <time>2010-06-17T16:15:34Z</time>
      </trkpt>
      <trkpt lat="48.36969" lon="5.08076">
        <ele>364.96</ele>
        <time>2010-06-17T16:15:41Z</time>
      </trkpt>
      <trkpt lat="48.36969" lon="5.08073">
        <ele>364.96</ele>
        <time>2010-06-17T16:15:42Z</time>
      </trkpt>
      <trkpt lat="48.36968" lon="5.0807">
        <ele>365.44</ele>
        <time>2010-06-17T16:15:43Z</time>
      </trkpt>
      <trkpt lat="48.36959" lon="5.08048">
        <ele>364.48</ele>
        <time>2010-06-17T16:15:49Z</time>
      </trkpt>
      <trkpt lat="48.36959" lon="5.08045">
        <ele>364.48</ele>
        <time>2010-06-17T16:15:50Z</time>
      </trkpt>
      <trkpt lat="48.3696" lon="5.0804">
        <ele>364.48</ele>
        <time>2010-06-17T16:15:52Z</time>
      </trkpt>
      <trkpt lat="48.3696" lon="5.08037">
        <ele>364</ele>
        <time>2010-06-17T16:15:53Z</time>
      </trkpt>
      <trkpt lat="48.36961" lon="5.08035">
        <ele>364</ele>
        <time>2010-06-17T16:15:54Z</time>
      </trkpt>
      <trkpt lat="48.36961" lon="5.08032">
        <ele>363.52</ele>
        <time>2010-06-17T16:15:55Z</time>
      </trkpt>
      <trkpt lat="48.36961" lon="5.0803">
        <ele>363.04</ele>
        <time>2010-06-17T16:15:56Z</time>
      </trkpt>
      <trkpt lat="48.36962" lon="5.08028">
        <ele>363.04</ele>
        <time>2010-06-17T16:15:57Z</time>
      </trkpt>
      <trkpt lat="48.36963" lon="5.08025">
        <ele>362.55</ele>
        <time>2010-06-17T16:15:58Z</time>
      </trkpt>
      <trkpt lat="48.36965" lon="5.08022">
        <ele>362.07</ele>
        <time>2010-06-17T16:15:59Z</time>
      </trkpt>
      <trkpt lat="48.36967" lon="5.08019">
        <ele>361.59</ele>
        <time>2010-06-17T16:16:00Z</time>
      </trkpt>
      <trkpt lat="48.36967" lon="5.07989">
        <ele>360.63</ele>
        <time>2010-06-17T16:16:10Z</time>
      </trkpt>
      <trkpt lat="48.36949" lon="5.07939">
        <ele>359.67</ele>
        <time>2010-06-17T16:16:18Z</time>
      </trkpt>
      <trkpt lat="48.36925" lon="5.07893">
        <ele>359.19</ele>
        <time>2010-06-17T16:16:27Z</time>
      </trkpt>
      <trkpt lat="48.36924" lon="5.07889">
        <ele>358.71</ele>
        <time>2010-06-17T16:16:28Z</time>
      </trkpt>
      <trkpt lat="48.369" lon="5.07836">
        <ele>358.23</ele>
        <time>2010-06-17T16:16:40Z</time>
      </trkpt>
      <trkpt lat="48.3688" lon="5.07783">
        <ele>357.27</ele>
        <time>2010-06-17T16:16:51Z</time>
      </trkpt>
      <trkpt lat="48.36869" lon="5.0776">
        <ele>356.31</ele>
        <time>2010-06-17T16:17:00Z</time>
      </trkpt>
      <trkpt lat="48.36868" lon="5.07757">
        <ele>355.83</ele>
        <time>2010-06-17T16:17:01Z</time>
      </trkpt>
      <trkpt lat="48.36867" lon="5.07755">
        <ele>356.79</ele>
        <time>2010-06-17T16:17:02Z</time>
      </trkpt>
      <trkpt lat="48.36858" lon="5.07724">
        <ele>356.31</ele>
        <time>2010-06-17T16:17:14Z</time>
      </trkpt>
      <trkpt lat="48.36846" lon="5.07695">
        <ele>356.31</ele>
        <time>2010-06-17T16:17:23Z</time>
      </trkpt>
      <trkpt lat="48.36826" lon="5.07648">
        <ele>354.86</ele>
        <time>2010-06-17T16:17:34Z</time>
      </trkpt>
      <trkpt lat="48.36806" lon="5.07612">
        <ele>353.9</ele>
        <time>2010-06-17T16:17:44Z</time>
      </trkpt>
      <trkpt lat="48.36793" lon="5.0758">
        <ele>353.9</ele>
        <time>2010-06-17T16:17:54Z</time>
      </trkpt>
      <trkpt lat="48.36791" lon="5.07575">
        <ele>353.9</ele>
        <time>2010-06-17T16:17:55Z</time>
      </trkpt>
      <trkpt lat="48.36778" lon="5.07545">
        <ele>352.94</ele>
        <time>2010-06-17T16:18:03Z</time>
      </trkpt>
      <trkpt lat="48.36761" lon="5.07493">
        <ele>351.5</ele>
        <time>2010-06-17T16:18:14Z</time>
      </trkpt>
      <trkpt lat="48.36751" lon="5.07471">
        <ele>351.5</ele>
        <time>2010-06-17T16:18:19Z</time>
      </trkpt>
      <trkpt lat="48.3675" lon="5.07466">
        <ele>351.02</ele>
        <time>2010-06-17T16:18:20Z</time>
      </trkpt>
      <trkpt lat="48.36748" lon="5.07461">
        <ele>351.5</ele>
        <time>2010-06-17T16:18:21Z</time>
      </trkpt>
      <trkpt lat="48.36746" lon="5.07455">
        <ele>351.02</ele>
        <time>2010-06-17T16:18:22Z</time>
      </trkpt>
      <trkpt lat="48.36742" lon="5.07449">
        <ele>350.54</ele>
        <time>2010-06-17T16:18:23Z</time>
      </trkpt>
      <trkpt lat="48.36716" lon="5.07395">
        <ele>349.1</ele>
        <time>2010-06-17T16:18:33Z</time>
      </trkpt>
      <trkpt lat="48.36691" lon="5.07338">
        <ele>347.17</ele>
        <time>2010-06-17T16:18:43Z</time>
      </trkpt>
      <trkpt lat="48.36671" lon="5.07293">
        <ele>345.73</ele>
        <time>2010-06-17T16:18:54Z</time>
      </trkpt>
      <trkpt lat="48.36665" lon="5.07268">
        <ele>344.29</ele>
        <time>2010-06-17T16:19:00Z</time>
      </trkpt>
      <trkpt lat="48.36664" lon="5.07264">
        <ele>343.33</ele>
        <time>2010-06-17T16:19:01Z</time>
      </trkpt>
      <trkpt lat="48.36665" lon="5.07258">
        <ele>342.85</ele>
        <time>2010-06-17T16:19:03Z</time>
      </trkpt>
      <trkpt lat="48.36672" lon="5.07238">
        <ele>339</ele>
        <time>2010-06-17T16:19:08Z</time>
      </trkpt>
      <trkpt lat="48.36673" lon="5.07237">
        <ele>339</ele>
        <time>2010-06-17T16:19:09Z</time>
      </trkpt>
      <trkpt lat="48.36681" lon="5.07225">
        <ele>336.12</ele>
        <time>2010-06-17T16:19:12Z</time>
      </trkpt>
      <trkpt lat="48.36697" lon="5.07212">
        <ele>332.75</ele>
        <time>2010-06-17T16:19:16Z</time>
      </trkpt>
      <trkpt lat="48.36715" lon="5.07193">
        <ele>327.47</ele>
        <time>2010-06-17T16:19:21Z</time>
      </trkpt>
      <trkpt lat="48.36728" lon="5.07178">
        <ele>324.58</ele>
        <time>2010-06-17T16:19:26Z</time>
      </trkpt>
      <trkpt lat="48.36732" lon="5.07172">
        <ele>322.66</ele>
        <time>2010-06-17T16:19:28Z</time>
      </trkpt>
      <trkpt lat="48.36737" lon="5.07166">
        <ele>322.18</ele>
        <time>2010-06-17T16:19:29Z</time>
      </trkpt>
      <trkpt lat="48.36744" lon="5.07157">
        <ele>320.74</ele>
        <time>2010-06-17T16:19:31Z</time>
      </trkpt>
      <trkpt lat="48.36765" lon="5.0714">
        <ele>317.85</ele>
        <time>2010-06-17T16:19:35Z</time>
      </trkpt>
      <trkpt lat="48.36797" lon="5.07117">
        <ele>314.49</ele>
        <time>2010-06-17T16:19:39Z</time>
      </trkpt>
      <trkpt lat="48.36824" lon="5.07093">
        <ele>310.64</ele>
        <time>2010-06-17T16:19:44Z</time>
      </trkpt>
      <trkpt lat="48.36847" lon="5.07074">
        <ele>307.28</ele>
        <time>2010-06-17T16:19:50Z</time>
      </trkpt>
      <trkpt lat="48.3685" lon="5.0707">
        <ele>307.28</ele>
        <time>2010-06-17T16:19:51Z</time>
      </trkpt>
      <trkpt lat="48.36848" lon="5.07056">
        <ele>307.28</ele>
        <time>2010-06-17T16:19:55Z</time>
      </trkpt>
      <trkpt lat="48.36817" lon="5.06994">
        <ele>306.32</ele>
        <time>2010-06-17T16:20:08Z</time>
      </trkpt>
      <trkpt lat="48.3681" lon="5.0698">
        <ele>305.84</ele>
        <time>2010-06-17T16:20:11Z</time>
      </trkpt>
      <trkpt lat="48.36808" lon="5.06975">
        <ele>305.84</ele>
        <time>2010-06-17T16:20:12Z</time>
      </trkpt>
      <trkpt lat="48.36805" lon="5.0697">
        <ele>305.84</ele>
        <time>2010-06-17T16:20:13Z</time>
      </trkpt>
      <trkpt lat="48.36802" lon="5.06965">
        <ele>305.84</ele>
        <time>2010-06-17T16:20:14Z</time>
      </trkpt>
      <trkpt lat="48.36799" lon="5.0696">
        <ele>305.36</ele>
        <time>2010-06-17T16:20:15Z</time>
      </trkpt>
      <trkpt lat="48.36768" lon="5.06912">
        <ele>304.88</ele>
        <time>2010-06-17T16:20:24Z</time>
      </trkpt>
      <trkpt lat="48.36765" lon="5.06907">
        <ele>304.88</ele>
        <time>2010-06-17T16:20:25Z</time>
      </trkpt>
      <trkpt lat="48.36763" lon="5.06902">
        <ele>304.39</ele>
        <time>2010-06-17T16:20:26Z</time>
      </trkpt>
      <trkpt lat="48.36761" lon="5.06898">
        <ele>304.88</ele>
        <time>2010-06-17T16:20:27Z</time>
      </trkpt>
      <trkpt lat="48.36759" lon="5.06895">
        <ele>304.88</ele>
        <time>2010-06-17T16:20:28Z</time>
      </trkpt>
      <trkpt lat="48.36726" lon="5.06846">
        <ele>306.32</ele>
        <time>2010-06-17T16:20:43Z</time>
      </trkpt>
      <trkpt lat="48.36699" lon="5.06803">
        <ele>307.28</ele>
        <time>2010-06-17T16:20:56Z</time>
      </trkpt>
      <trkpt lat="48.3666" lon="5.06749">
        <ele>309.2</ele>
        <time>2010-06-17T16:21:14Z</time>
      </trkpt>
      <trkpt lat="48.36637" lon="5.0671">
        <ele>310.64</ele>
        <time>2010-06-17T16:21:27Z</time>
      </trkpt>
      <trkpt lat="48.36607" lon="5.06666">
        <ele>313.05</ele>
        <time>2010-06-17T16:21:43Z</time>
      </trkpt>
      <trkpt lat="48.36576" lon="5.06618">
        <ele>315.45</ele>
        <time>2010-06-17T16:21:59Z</time>
      </trkpt>
      <trkpt lat="48.36542" lon="5.06562">
        <ele>316.41</ele>
        <time>2010-06-17T16:22:16Z</time>
      </trkpt>
      <trkpt lat="48.36518" lon="5.06519">
        <ele>316.41</ele>
        <time>2010-06-17T16:22:30Z</time>
      </trkpt>
      <trkpt lat="48.36496" lon="5.0646">
        <ele>314.97</ele>
        <time>2010-06-17T16:22:44Z</time>
      </trkpt>
      <trkpt lat="48.36489" lon="5.06431">
        <ele>314.01</ele>
        <time>2010-06-17T16:22:49Z</time>
      </trkpt>
      <trkpt lat="48.36487" lon="5.06419">
        <ele>313.53</ele>
        <time>2010-06-17T16:22:51Z</time>
      </trkpt>
      <trkpt lat="48.36483" lon="5.06407">
        <ele>313.53</ele>
        <time>2010-06-17T16:22:53Z</time>
      </trkpt>
      <trkpt lat="48.36481" lon="5.064">
        <ele>313.05</ele>
        <time>2010-06-17T16:22:54Z</time>
      </trkpt>
      <trkpt lat="48.36478" lon="5.06385">
        <ele>312.09</ele>
        <time>2010-06-17T16:22:56Z</time>
      </trkpt>
      <trkpt lat="48.36476" lon="5.06376">
        <ele>311.6</ele>
        <time>2010-06-17T16:22:57Z</time>
      </trkpt>
      <trkpt lat="48.36474" lon="5.06367">
        <ele>311.12</ele>
        <time>2010-06-17T16:22:58Z</time>
      </trkpt>
      <trkpt lat="48.36467" lon="5.06332">
        <ele>308.24</ele>
        <time>2010-06-17T16:23:03Z</time>
      </trkpt>
      <trkpt lat="48.36466" lon="5.0633">
        <ele>307.76</ele>
        <time>2010-06-17T16:23:04Z</time>
      </trkpt>
      <trkpt lat="48.36465" lon="5.06329">
        <ele>308.24</ele>
        <time>2010-06-17T16:23:19Z</time>
      </trkpt>
      <trkpt lat="48.36465" lon="5.06328">
        <ele>308.72</ele>
        <time>2010-06-17T16:23:33Z</time>
      </trkpt>
      <trkpt lat="48.36465" lon="5.06325">
        <ele>308.24</ele>
        <time>2010-06-17T16:23:47Z</time>
      </trkpt>
      <trkpt lat="48.36465" lon="5.06325">
        <ele>307.76</ele>
        <time>2010-06-17T16:23:53Z</time>
      </trkpt>
      <trkpt lat="48.36458" lon="5.0633">
        <ele>308.72</ele>
        <time>2010-06-17T16:23:59Z</time>
      </trkpt>
      <trkpt lat="48.36435" lon="5.06364">
        <ele>311.6</ele>
        <time>2010-06-17T16:24:14Z</time>
      </trkpt>
      <trkpt lat="48.36411" lon="5.06401">
        <ele>314.49</ele>
        <time>2010-06-17T16:24:29Z</time>
      </trkpt>
      <trkpt lat="48.36399" lon="5.06438">
        <ele>317.85</ele>
        <time>2010-06-17T16:24:44Z</time>
      </trkpt>
      <trkpt lat="48.36394" lon="5.06457">
        <ele>319.3</ele>
        <time>2010-06-17T16:24:52Z</time>
      </trkpt>
      <trkpt lat="48.36393" lon="5.06467">
        <ele>320.26</ele>
        <time>2010-06-17T16:24:56Z</time>
      </trkpt>
      <trkpt lat="48.36393" lon="5.06485">
        <ele>322.18</ele>
        <time>2010-06-17T16:25:03Z</time>
      </trkpt>
      <trkpt lat="48.36396" lon="5.0651">
        <ele>324.58</ele>
        <time>2010-06-17T16:25:14Z</time>
      </trkpt>
      <trkpt lat="48.36398" lon="5.06546">
        <ele>327.95</ele>
        <time>2010-06-17T16:25:29Z</time>
      </trkpt>
      <trkpt lat="48.36397" lon="5.06586">
        <ele>330.83</ele>
        <time>2010-06-17T16:25:46Z</time>
      </trkpt>
      <trkpt lat="48.36397" lon="5.06618">
        <ele>332.27</ele>
        <time>2010-06-17T16:26:00Z</time>
      </trkpt>
      <trkpt lat="48.36397" lon="5.06653">
        <ele>335.64</ele>
        <time>2010-06-17T16:26:14Z</time>
      </trkpt>
      <trkpt lat="48.36392" lon="5.06689">
        <ele>338.04</ele>
        <time>2010-06-17T16:26:30Z</time>
      </trkpt>
      <trkpt lat="48.3639" lon="5.06729">
        <ele>340.92</ele>
        <time>2010-06-17T16:26:47Z</time>
      </trkpt>
      <trkpt lat="48.36385" lon="5.06764">
        <ele>343.81</ele>
        <time>2010-06-17T16:27:02Z</time>
      </trkpt>
      <trkpt lat="48.36381" lon="5.06809">
        <ele>346.69</ele>
        <time>2010-06-17T16:27:21Z</time>
      </trkpt>
      <trkpt lat="48.36376" lon="5.06859">
        <ele>348.62</ele>
        <time>2010-06-17T16:27:40Z</time>
      </trkpt>
      <trkpt lat="48.36376" lon="5.06895">
        <ele>351.02</ele>
        <time>2010-06-17T16:27:53Z</time>
      </trkpt>
      <trkpt lat="48.36381" lon="5.06942">
        <ele>353.9</ele>
        <time>2010-06-17T16:28:08Z</time>
      </trkpt>
      <trkpt lat="48.36387" lon="5.07008">
        <ele>355.34</ele>
        <time>2010-06-17T16:28:26Z</time>
      </trkpt>
      <trkpt lat="48.36393" lon="5.07067">
        <ele>357.27</ele>
        <time>2010-06-17T16:28:42Z</time>
      </trkpt>
      <trkpt lat="48.36399" lon="5.07122">
        <ele>358.23</ele>
        <time>2010-06-17T16:28:57Z</time>
      </trkpt>
      <trkpt lat="48.36403" lon="5.07163">
        <ele>359.67</ele>
        <time>2010-06-17T16:29:11Z</time>
      </trkpt>
      <trkpt lat="48.36406" lon="5.07207">
        <ele>360.63</ele>
        <time>2010-06-17T16:29:27Z</time>
      </trkpt>
      <trkpt lat="48.36408" lon="5.07216">
        <ele>360.63</ele>
        <time>2010-06-17T16:29:31Z</time>
      </trkpt>
      <trkpt lat="48.3641" lon="5.07235">
        <ele>360.63</ele>
        <time>2010-06-17T16:29:38Z</time>
      </trkpt>
      <trkpt lat="48.36411" lon="5.07245">
        <ele>361.11</ele>
        <time>2010-06-17T16:29:42Z</time>
      </trkpt>
      <trkpt lat="48.36415" lon="5.0728">
        <ele>361.59</ele>
        <time>2010-06-17T16:29:56Z</time>
      </trkpt>
      <trkpt lat="48.36418" lon="5.0732">
        <ele>361.59</ele>
        <time>2010-06-17T16:30:12Z</time>
      </trkpt>
      <trkpt lat="48.36422" lon="5.07361">
        <ele>362.07</ele>
        <time>2010-06-17T16:30:28Z</time>
      </trkpt>
      <trkpt lat="48.36425" lon="5.07398">
        <ele>362.55</ele>
        <time>2010-06-17T16:30:43Z</time>
      </trkpt>
      <trkpt lat="48.36428" lon="5.0743">
        <ele>362.55</ele>
        <time>2010-06-17T16:30:57Z</time>
      </trkpt>
      <trkpt lat="48.36428" lon="5.07459">
        <ele>363.52</ele>
        <time>2010-06-17T16:31:08Z</time>
      </trkpt>
      <trkpt lat="48.36432" lon="5.07489">
        <ele>364</ele>
        <time>2010-06-17T16:31:22Z</time>
      </trkpt>
      <trkpt lat="48.36434" lon="5.07499">
        <ele>364</ele>
        <time>2010-06-17T16:31:28Z</time>
      </trkpt>
      <trkpt lat="48.36435" lon="5.0753">
        <ele>364.48</ele>
        <time>2010-06-17T16:31:41Z</time>
      </trkpt>
      <trkpt lat="48.36427" lon="5.07537">
        <ele>364.96</ele>
        <time>2010-06-17T16:31:48Z</time>
      </trkpt>
      <trkpt lat="48.36425" lon="5.07537">
        <ele>364.96</ele>
        <time>2010-06-17T16:32:02Z</time>
      </trkpt>
      <trkpt lat="48.36425" lon="5.07537">
        <ele>364.48</ele>
        <time>2010-06-17T16:32:22Z</time>
      </trkpt>
      <trkpt lat="48.36428" lon="5.07535">
        <ele>364</ele>
        <time>2010-06-17T16:32:26Z</time>
      </trkpt>
      <trkpt lat="48.36431" lon="5.07531">
        <ele>364.48</ele>
        <time>2010-06-17T16:32:41Z</time>
      </trkpt>
      <trkpt lat="48.36432" lon="5.07531">
        <ele>364.48</ele>
        <time>2010-06-17T16:33:03Z</time>
      </trkpt>
      <trkpt lat="48.3643" lon="5.0753">
        <ele>364.48</ele>
        <time>2010-06-17T16:33:15Z</time>
      </trkpt>
      <trkpt lat="48.36429" lon="5.07531">
        <ele>364</ele>
        <time>2010-06-17T16:33:17Z</time>
      </trkpt>
      <trkpt lat="48.36423" lon="5.07531">
        <ele>364.48</ele>
        <time>2010-06-17T16:33:21Z</time>
      </trkpt>
      <trkpt lat="48.36385" lon="5.0754">
        <ele>366.4</ele>
        <time>2010-06-17T16:33:37Z</time>
      </trkpt>
      <trkpt lat="48.36375" lon="5.0754">
        <ele>367.36</ele>
        <time>2010-06-17T16:33:41Z</time>
      </trkpt>
      <trkpt lat="48.36346" lon="5.07545">
        <ele>368.32</ele>
        <time>2010-06-17T16:33:54Z</time>
      </trkpt>
      <trkpt lat="48.3632" lon="5.07543">
        <ele>368.8</ele>
        <time>2010-06-17T16:34:06Z</time>
      </trkpt>
      <trkpt lat="48.36299" lon="5.07539">
        <ele>369.76</ele>
        <time>2010-06-17T16:34:18Z</time>
      </trkpt>
      <trkpt lat="48.36285" lon="5.07538">
        <ele>369.28</ele>
        <time>2010-06-17T16:34:29Z</time>
      </trkpt>
      <trkpt lat="48.3626" lon="5.07524">
        <ele>370.24</ele>
        <time>2010-06-17T16:34:40Z</time>
      </trkpt>
      <trkpt lat="48.36221" lon="5.07502">
        <ele>371.21</ele>
        <time>2010-06-17T16:34:54Z</time>
      </trkpt>
      <trkpt lat="48.3619" lon="5.07506">
        <ele>371.21</ele>
        <time>2010-06-17T16:35:04Z</time>
      </trkpt>
      <trkpt lat="48.36152" lon="5.07513">
        <ele>371.69</ele>
        <time>2010-06-17T16:35:15Z</time>
      </trkpt>
      <trkpt lat="48.3611" lon="5.07515">
        <ele>372.17</ele>
        <time>2010-06-17T16:35:25Z</time>
      </trkpt>
      <trkpt lat="48.36061" lon="5.07519">
        <ele>371.69</ele>
        <time>2010-06-17T16:35:38Z</time>
      </trkpt>
      <trkpt lat="48.36057" lon="5.07518">
        <ele>371.21</ele>
        <time>2010-06-17T16:35:39Z</time>
      </trkpt>
      <trkpt lat="48.36035" lon="5.07518">
        <ele>371.69</ele>
        <time>2010-06-17T16:35:44Z</time>
      </trkpt>
      <trkpt lat="48.35978" lon="5.07506">
        <ele>372.17</ele>
        <time>2010-06-17T16:35:58Z</time>
      </trkpt>
      <trkpt lat="48.35956" lon="5.07498">
        <ele>372.65</ele>
        <time>2010-06-17T16:36:04Z</time>
      </trkpt>
      <trkpt lat="48.359" lon="5.07479">
        <ele>373.61</ele>
        <time>2010-06-17T16:36:19Z</time>
      </trkpt>
      <trkpt lat="48.35861" lon="5.07471">
        <ele>375.05</ele>
        <time>2010-06-17T16:36:30Z</time>
      </trkpt>
      <trkpt lat="48.35829" lon="5.07469">
        <ele>376.01</ele>
        <time>2010-06-17T16:36:41Z</time>
      </trkpt>
      <trkpt lat="48.358" lon="5.07467">
        <ele>376.97</ele>
        <time>2010-06-17T16:36:52Z</time>
      </trkpt>
      <trkpt lat="48.35763" lon="5.07465">
        <ele>377.45</ele>
        <time>2010-06-17T16:37:05Z</time>
      </trkpt>
      <trkpt lat="48.35728" lon="5.0746">
        <ele>379.38</ele>
        <time>2010-06-17T16:37:18Z</time>
      </trkpt>
      <trkpt lat="48.35685" lon="5.07461">
        <ele>380.82</ele>
        <time>2010-06-17T16:37:33Z</time>
      </trkpt>
      <trkpt lat="48.35683" lon="5.07461">
        <ele>381.3</ele>
        <time>2010-06-17T16:37:34Z</time>
      </trkpt>
      <trkpt lat="48.35678" lon="5.07463">
        <ele>380.82</ele>
        <time>2010-06-17T16:37:41Z</time>
      </trkpt>
      <trkpt lat="48.3568" lon="5.07463">
        <ele>381.3</ele>
        <time>2010-06-17T16:37:42Z</time>
      </trkpt>
      <trkpt lat="48.35681" lon="5.07462">
        <ele>380.82</ele>
        <time>2010-06-17T16:37:43Z</time>
      </trkpt>
      <trkpt lat="48.35683" lon="5.07461">
        <ele>380.82</ele>
        <time>2010-06-17T16:37:44Z</time>
      </trkpt>
      <trkpt lat="48.35713" lon="5.07454">
        <ele>380.34</ele>
        <time>2010-06-17T16:37:55Z</time>
      </trkpt>
      <trkpt lat="48.35732" lon="5.07458">
        <ele>379.86</ele>
        <time>2010-06-17T16:38:00Z</time>
      </trkpt>
      <trkpt lat="48.35755" lon="5.07462">
        <ele>379.38</ele>
        <time>2010-06-17T16:38:05Z</time>
      </trkpt>
      <trkpt lat="48.35833" lon="5.07469">
        <ele>376.97</ele>
        <time>2010-06-17T16:38:17Z</time>
      </trkpt>
      <trkpt lat="48.35852" lon="5.0747">
        <ele>376.01</ele>
        <time>2010-06-17T16:38:20Z</time>
      </trkpt>
      <trkpt lat="48.35859" lon="5.0747">
        <ele>376.01</ele>
        <time>2010-06-17T16:38:21Z</time>
      </trkpt>
      <trkpt lat="48.35865" lon="5.07471">
        <ele>375.53</ele>
        <time>2010-06-17T16:38:22Z</time>
      </trkpt>
      <trkpt lat="48.35907" lon="5.07479">
        <ele>374.57</ele>
        <time>2010-06-17T16:38:32Z</time>
      </trkpt>
      <trkpt lat="48.35907" lon="5.07479">
        <ele>374.57</ele>
        <time>2010-06-17T16:38:52Z</time>
      </trkpt>
      <trkpt lat="48.35907" lon="5.07478">
        <ele>374.09</ele>
        <time>2010-06-17T16:39:09Z</time>
      </trkpt>
      <trkpt lat="48.35907" lon="5.07478">
        <ele>374.09</ele>
        <time>2010-06-17T16:39:29Z</time>
      </trkpt>
      <trkpt lat="48.35907" lon="5.07479">
        <ele>374.09</ele>
        <time>2010-06-17T16:39:57Z</time>
      </trkpt>
      <trkpt lat="48.35907" lon="5.07478">
        <ele>373.61</ele>
        <time>2010-06-17T16:40:23Z</time>
      </trkpt>
      <trkpt lat="48.35907" lon="5.07478">
        <ele>373.13</ele>
        <time>2010-06-17T16:40:51Z</time>
      </trkpt>
      <trkpt lat="48.35907" lon="5.07478">
        <ele>374.09</ele>
        <time>2010-06-17T16:41:01Z</time>
      </trkpt>
      <trkpt lat="48.35907" lon="5.07478">
        <ele>374.09</ele>
        <time>2010-06-17T16:41:14Z</time>
      </trkpt>
      <trkpt lat="48.35906" lon="5.07478">
        <ele>374.09</ele>
        <time>2010-06-17T16:41:41Z</time>
      </trkpt>
      <trkpt lat="48.35906" lon="5.07478">
        <ele>374.57</ele>
        <time>2010-06-17T16:42:04Z</time>
      </trkpt>
      <trkpt lat="48.35906" lon="5.07478">
        <ele>373.61</ele>
        <time>2010-06-17T16:42:24Z</time>
      </trkpt>
      <trkpt lat="48.35906" lon="5.07478">
        <ele>374.57</ele>
        <time>2010-06-17T16:42:54Z</time>
      </trkpt>
      <trkpt lat="48.35906" lon="5.07478">
        <ele>374.57</ele>
        <time>2010-06-17T16:43:29Z</time>
      </trkpt>
      <trkpt lat="48.35906" lon="5.07478">
        <ele>374.57</ele>
        <time>2010-06-17T16:43:58Z</time>
      </trkpt>
      <trkpt lat="48.35906" lon="5.07478">
        <ele>375.05</ele>
        <time>2010-06-17T16:44:29Z</time>
      </trkpt>
      <trkpt lat="48.35906" lon="5.07478">
        <ele>375.05</ele>
        <time>2010-06-17T16:45:01Z</time>
      </trkpt>
      <trkpt lat="48.35905" lon="5.07479">
        <ele>374.57</ele>
        <time>2010-06-17T16:45:23Z</time>
      </trkpt>
      <trkpt lat="48.35905" lon="5.0748">
        <ele>375.53</ele>
        <time>2010-06-17T16:45:40Z</time>
      </trkpt>
      <trkpt lat="48.35905" lon="5.0748">
        <ele>375.53</ele>
        <time>2010-06-17T16:46:08Z</time>
      </trkpt>
      <trkpt lat="48.35905" lon="5.0748">
        <ele>375.05</ele>
        <time>2010-06-17T16:46:29Z</time>
      </trkpt>
      <trkpt lat="48.35903" lon="5.07479">
        <ele>375.53</ele>
        <time>2010-06-17T16:46:41Z</time>
      </trkpt>
      <trkpt lat="48.35901" lon="5.07479">
        <ele>375.53</ele>
        <time>2010-06-17T16:46:42Z</time>
      </trkpt>
      <trkpt lat="48.35899" lon="5.07479">
        <ele>376.01</ele>
        <time>2010-06-17T16:46:43Z</time>
      </trkpt>
      <trkpt lat="48.35897" lon="5.07478">
        <ele>375.05</ele>
        <time>2010-06-17T16:46:44Z</time>
      </trkpt>
      <trkpt lat="48.35895" lon="5.07478">
        <ele>375.53</ele>
        <time>2010-06-17T16:46:45Z</time>
      </trkpt>
      <trkpt lat="48.35893" lon="5.07477">
        <ele>375.53</ele>
        <time>2010-06-17T16:46:46Z</time>
      </trkpt>
      <trkpt lat="48.35891" lon="5.07477">
        <ele>375.53</ele>
        <time>2010-06-17T16:46:47Z</time>
      </trkpt>
      <trkpt lat="48.35889" lon="5.07477">
        <ele>375.53</ele>
        <time>2010-06-17T16:46:48Z</time>
      </trkpt>
      <trkpt lat="48.35887" lon="5.07476">
        <ele>376.01</ele>
        <time>2010-06-17T16:46:49Z</time>
      </trkpt>
      <trkpt lat="48.35885" lon="5.07476">
        <ele>375.53</ele>
        <time>2010-06-17T16:46:50Z</time>
      </trkpt>
      <trkpt lat="48.35858" lon="5.07471">
        <ele>376.49</ele>
        <time>2010-06-17T16:47:05Z</time>
      </trkpt>
      <trkpt lat="48.35832" lon="5.0747">
        <ele>376.97</ele>
        <time>2010-06-17T16:47:19Z</time>
      </trkpt>
      <trkpt lat="48.35806" lon="5.07465">
        <ele>377.94</ele>
        <time>2010-06-17T16:47:35Z</time>
      </trkpt>
      <trkpt lat="48.35782" lon="5.07463">
        <ele>379.38</ele>
        <time>2010-06-17T16:47:51Z</time>
      </trkpt>
      <trkpt lat="48.3577" lon="5.07464">
        <ele>379.86</ele>
        <time>2010-06-17T16:47:59Z</time>
      </trkpt>
      <trkpt lat="48.35768" lon="5.07464">
        <ele>379.86</ele>
        <time>2010-06-17T16:48:00Z</time>
      </trkpt>
      <trkpt lat="48.35766" lon="5.07464">
        <ele>379.86</ele>
        <time>2010-06-17T16:48:01Z</time>
      </trkpt>
      <trkpt lat="48.35765" lon="5.07464">
        <ele>380.34</ele>
        <time>2010-06-17T16:48:02Z</time>
      </trkpt>
      <trkpt lat="48.35764" lon="5.07464">
        <ele>379.86</ele>
        <time>2010-06-17T16:48:03Z</time>
      </trkpt>
      <trkpt lat="48.35762" lon="5.07463">
        <ele>380.34</ele>
        <time>2010-06-17T16:48:04Z</time>
      </trkpt>
      <trkpt lat="48.35753" lon="5.07463">
        <ele>380.34</ele>
        <time>2010-06-17T16:48:10Z</time>
      </trkpt>
      <trkpt lat="48.35752" lon="5.07462">
        <ele>380.82</ele>
        <time>2010-06-17T16:48:11Z</time>
      </trkpt>
      <trkpt lat="48.3575" lon="5.07462">
        <ele>380.34</ele>
        <time>2010-06-17T16:48:12Z</time>
      </trkpt>
      <trkpt lat="48.35748" lon="5.07461">
        <ele>380.34</ele>
        <time>2010-06-17T16:48:13Z</time>
      </trkpt>
      <trkpt lat="48.35747" lon="5.07461">
        <ele>380.34</ele>
        <time>2010-06-17T16:48:14Z</time>
      </trkpt>
      <trkpt lat="48.35723" lon="5.07458">
        <ele>381.3</ele>
        <time>2010-06-17T16:48:29Z</time>
      </trkpt>
      <trkpt lat="48.35699" lon="5.07458">
        <ele>382.26</ele>
        <time>2010-06-17T16:48:44Z</time>
      </trkpt>
      <trkpt lat="48.3569" lon="5.07459">
        <ele>382.26</ele>
        <time>2010-06-17T16:48:50Z</time>
      </trkpt>
      <trkpt lat="48.35688" lon="5.0746">
        <ele>380.34</ele>
        <time>2010-06-17T16:48:51Z</time>
      </trkpt>
      <trkpt lat="48.35687" lon="5.0746">
        <ele>381.3</ele>
        <time>2010-06-17T16:48:52Z</time>
      </trkpt>
      <trkpt lat="48.35684" lon="5.07461">
        <ele>382.26</ele>
        <time>2010-06-17T16:48:54Z</time>
      </trkpt>
      <trkpt lat="48.35666" lon="5.07463">
        <ele>383.22</ele>
        <time>2010-06-17T16:49:06Z</time>
      </trkpt>
      <trkpt lat="48.35664" lon="5.07464">
        <ele>383.22</ele>
        <time>2010-06-17T16:49:07Z</time>
      </trkpt>
      <trkpt lat="48.35662" lon="5.07464">
        <ele>383.22</ele>
        <time>2010-06-17T16:49:08Z</time>
      </trkpt>
      <trkpt lat="48.35647" lon="5.07464">
        <ele>383.7</ele>
        <time>2010-06-17T16:49:17Z</time>
      </trkpt>
      <trkpt lat="48.35626" lon="5.07461">
        <ele>383.7</ele>
        <time>2010-06-17T16:49:31Z</time>
      </trkpt>
      <trkpt lat="48.35614" lon="5.07457">
        <ele>384.18</ele>
        <time>2010-06-17T16:49:39Z</time>
      </trkpt>
      <trkpt lat="48.35613" lon="5.07457">
        <ele>384.18</ele>
        <time>2010-06-17T16:49:40Z</time>
      </trkpt>
      <trkpt lat="48.35609" lon="5.07457">
        <ele>384.66</ele>
        <time>2010-06-17T16:49:43Z</time>
      </trkpt>
      <trkpt lat="48.35608" lon="5.07456">
        <ele>384.66</ele>
        <time>2010-06-17T16:49:44Z</time>
      </trkpt>
      <trkpt lat="48.35606" lon="5.07456">
        <ele>384.66</ele>
        <time>2010-06-17T16:49:45Z</time>
      </trkpt>
      <trkpt lat="48.35605" lon="5.07456">
        <ele>384.66</ele>
        <time>2010-06-17T16:49:46Z</time>
      </trkpt>
      <trkpt lat="48.35604" lon="5.07456">
        <ele>384.66</ele>
        <time>2010-06-17T16:49:47Z</time>
      </trkpt>
      <trkpt lat="48.35597" lon="5.07454">
        <ele>385.15</ele>
        <time>2010-06-17T16:49:52Z</time>
      </trkpt>
      <trkpt lat="48.35595" lon="5.07454">
        <ele>385.15</ele>
        <time>2010-06-17T16:49:53Z</time>
      </trkpt>
      <trkpt lat="48.35571" lon="5.07445">
        <ele>386.11</ele>
        <time>2010-06-17T16:50:08Z</time>
      </trkpt>
      <trkpt lat="48.35564" lon="5.07442">
        <ele>386.11</ele>
        <time>2010-06-17T16:50:13Z</time>
      </trkpt>
      <trkpt lat="48.35562" lon="5.07441">
        <ele>386.11</ele>
        <time>2010-06-17T16:50:14Z</time>
      </trkpt>
      <trkpt lat="48.35543" lon="5.07433">
        <ele>386.59</ele>
        <time>2010-06-17T16:50:26Z</time>
      </trkpt>
      <trkpt lat="48.35542" lon="5.07432">
        <ele>386.59</ele>
        <time>2010-06-17T16:50:27Z</time>
      </trkpt>
      <trkpt lat="48.3554" lon="5.07431">
        <ele>386.59</ele>
        <time>2010-06-17T16:50:28Z</time>
      </trkpt>
      <trkpt lat="48.35515" lon="5.07418">
        <ele>387.55</ele>
        <time>2010-06-17T16:50:42Z</time>
      </trkpt>
      <trkpt lat="48.35502" lon="5.07411">
        <ele>388.03</ele>
        <time>2010-06-17T16:50:50Z</time>
      </trkpt>
      <trkpt lat="48.35501" lon="5.07409">
        <ele>388.51</ele>
        <time>2010-06-17T16:50:51Z</time>
      </trkpt>
      <trkpt lat="48.355" lon="5.07407">
        <ele>388.03</ele>
        <time>2010-06-17T16:50:52Z</time>
      </trkpt>
      <trkpt lat="48.35498" lon="5.07405">
        <ele>387.55</ele>
        <time>2010-06-17T16:50:53Z</time>
      </trkpt>
      <trkpt lat="48.35497" lon="5.07402">
        <ele>387.55</ele>
        <time>2010-06-17T16:50:54Z</time>
      </trkpt>
      <trkpt lat="48.35495" lon="5.074">
        <ele>387.55</ele>
        <time>2010-06-17T16:50:55Z</time>
      </trkpt>
      <trkpt lat="48.35493" lon="5.07398">
        <ele>388.03</ele>
        <time>2010-06-17T16:50:56Z</time>
      </trkpt>
      <trkpt lat="48.3549" lon="5.07396">
        <ele>387.55</ele>
        <time>2010-06-17T16:50:57Z</time>
      </trkpt>
      <trkpt lat="48.35482" lon="5.07383">
        <ele>388.03</ele>
        <time>2010-06-17T16:51:03Z</time>
      </trkpt>
      <trkpt lat="48.35482" lon="5.0738">
        <ele>388.03</ele>
        <time>2010-06-17T16:51:04Z</time>
      </trkpt>
      <trkpt lat="48.35484" lon="5.07378">
        <ele>388.03</ele>
        <time>2010-06-17T16:51:05Z</time>
      </trkpt>
      <trkpt lat="48.35485" lon="5.07377">
        <ele>387.55</ele>
        <time>2010-06-17T16:51:06Z</time>
      </trkpt>
      <trkpt lat="48.35487" lon="5.07377">
        <ele>387.07</ele>
        <time>2010-06-17T16:51:07Z</time>
      </trkpt>
      <trkpt lat="48.35489" lon="5.07378">
        <ele>387.55</ele>
        <time>2010-06-17T16:51:08Z</time>
      </trkpt>
      <trkpt lat="48.35491" lon="5.0738">
        <ele>387.55</ele>
        <time>2010-06-17T16:51:09Z</time>
      </trkpt>
      <trkpt lat="48.35503" lon="5.0739">
        <ele>387.55</ele>
        <time>2010-06-17T16:51:14Z</time>
      </trkpt>
      <trkpt lat="48.35506" lon="5.07389">
        <ele>387.07</ele>
        <time>2010-06-17T16:51:15Z</time>
      </trkpt>
      <trkpt lat="48.35509" lon="5.07385">
        <ele>387.07</ele>
        <time>2010-06-17T16:51:16Z</time>
      </trkpt>
      <trkpt lat="48.35511" lon="5.0738">
        <ele>387.07</ele>
        <time>2010-06-17T16:51:17Z</time>
      </trkpt>
      <trkpt lat="48.35513" lon="5.07374">
        <ele>387.07</ele>
        <time>2010-06-17T16:51:18Z</time>
      </trkpt>
      <trkpt lat="48.35515" lon="5.07368">
        <ele>387.07</ele>
        <time>2010-06-17T16:51:19Z</time>
      </trkpt>
      <trkpt lat="48.35523" lon="5.07338">
        <ele>386.11</ele>
        <time>2010-06-17T16:51:23Z</time>
      </trkpt>
      <trkpt lat="48.35548" lon="5.07262">
        <ele>383.22</ele>
        <time>2010-06-17T16:51:35Z</time>
      </trkpt>
      <trkpt lat="48.35573" lon="5.07172">
        <ele>379.86</ele>
        <time>2010-06-17T16:51:48Z</time>
      </trkpt>
      <trkpt lat="48.3558" lon="5.07147">
        <ele>379.38</ele>
        <time>2010-06-17T16:51:51Z</time>
      </trkpt>
      <trkpt lat="48.35583" lon="5.07139">
        <ele>378.9</ele>
        <time>2010-06-17T16:51:52Z</time>
      </trkpt>
      <trkpt lat="48.35617" lon="5.07025">
        <ele>376.01</ele>
        <time>2010-06-17T16:52:04Z</time>
      </trkpt>
      <trkpt lat="48.35661" lon="5.06918">
        <ele>373.13</ele>
        <time>2010-06-17T16:52:16Z</time>
      </trkpt>
      <trkpt lat="48.35664" lon="5.06913">
        <ele>372.65</ele>
        <time>2010-06-17T16:52:17Z</time>
      </trkpt>
      <trkpt lat="48.35667" lon="5.06908">
        <ele>372.17</ele>
        <time>2010-06-17T16:52:18Z</time>
      </trkpt>
      <trkpt lat="48.35682" lon="5.06875">
        <ele>371.21</ele>
        <time>2010-06-17T16:52:26Z</time>
      </trkpt>
      <trkpt lat="48.35685" lon="5.0687">
        <ele>371.21</ele>
        <time>2010-06-17T16:52:27Z</time>
      </trkpt>
      <trkpt lat="48.35733" lon="5.06785">
        <ele>367.84</ele>
        <time>2010-06-17T16:52:38Z</time>
      </trkpt>
      <trkpt lat="48.35775" lon="5.06723">
        <ele>364.48</ele>
        <time>2010-06-17T16:52:45Z</time>
      </trkpt>
      <trkpt lat="48.35783" lon="5.06715">
        <ele>364</ele>
        <time>2010-06-17T16:52:46Z</time>
      </trkpt>
      <trkpt lat="48.35832" lon="5.06677">
        <ele>361.11</ele>
        <time>2010-06-17T16:52:52Z</time>
      </trkpt>
      <trkpt lat="48.35849" lon="5.06664">
        <ele>360.63</ele>
        <time>2010-06-17T16:52:54Z</time>
      </trkpt>
      <trkpt lat="48.35893" lon="5.06635">
        <ele>357.27</ele>
        <time>2010-06-17T16:52:59Z</time>
      </trkpt>
      <trkpt lat="48.3592" lon="5.06613">
        <ele>355.83</ele>
        <time>2010-06-17T16:53:02Z</time>
      </trkpt>
      <trkpt lat="48.35947" lon="5.06589">
        <ele>352.94</ele>
        <time>2010-06-17T16:53:05Z</time>
      </trkpt>
      <trkpt lat="48.35984" lon="5.06551">
        <ele>349.58</ele>
        <time>2010-06-17T16:53:09Z</time>
      </trkpt>
      <trkpt lat="48.36024" lon="5.06513">
        <ele>346.69</ele>
        <time>2010-06-17T16:53:13Z</time>
      </trkpt>
      <trkpt lat="48.36067" lon="5.06476">
        <ele>342.85</ele>
        <time>2010-06-17T16:53:17Z</time>
      </trkpt>
      <trkpt lat="48.36078" lon="5.06466">
        <ele>342.85</ele>
        <time>2010-06-17T16:53:18Z</time>
      </trkpt>
      <trkpt lat="48.3611" lon="5.06436">
        <ele>340.92</ele>
        <time>2010-06-17T16:53:21Z</time>
      </trkpt>
      <trkpt lat="48.3612" lon="5.06423">
        <ele>339.48</ele>
        <time>2010-06-17T16:53:22Z</time>
      </trkpt>
      <trkpt lat="48.36128" lon="5.06408">
        <ele>338.52</ele>
        <time>2010-06-17T16:53:23Z</time>
      </trkpt>
      <trkpt lat="48.36135" lon="5.06392">
        <ele>337.56</ele>
        <time>2010-06-17T16:53:24Z</time>
      </trkpt>
      <trkpt lat="48.36141" lon="5.06375">
        <ele>336.6</ele>
        <time>2010-06-17T16:53:25Z</time>
      </trkpt>
      <trkpt lat="48.36146" lon="5.06356">
        <ele>335.64</ele>
        <time>2010-06-17T16:53:26Z</time>
      </trkpt>
      <trkpt lat="48.3615" lon="5.06336">
        <ele>334.68</ele>
        <time>2010-06-17T16:53:27Z</time>
      </trkpt>
      <trkpt lat="48.36152" lon="5.06317">
        <ele>333.71</ele>
        <time>2010-06-17T16:53:28Z</time>
      </trkpt>
      <trkpt lat="48.36159" lon="5.06256">
        <ele>329.87</ele>
        <time>2010-06-17T16:53:31Z</time>
      </trkpt>
      <trkpt lat="48.36168" lon="5.06174">
        <ele>326.02</ele>
        <time>2010-06-17T16:53:35Z</time>
      </trkpt>
      <trkpt lat="48.36174" lon="5.06112">
        <ele>322.18</ele>
        <time>2010-06-17T16:53:38Z</time>
      </trkpt>
      <trkpt lat="48.36184" lon="5.06029">
        <ele>318.81</ele>
        <time>2010-06-17T16:53:42Z</time>
      </trkpt>
      <trkpt lat="48.3619" lon="5.05967">
        <ele>315.93</ele>
        <time>2010-06-17T16:53:45Z</time>
      </trkpt>
      <trkpt lat="48.36196" lon="5.05905">
        <ele>312.09</ele>
        <time>2010-06-17T16:53:48Z</time>
      </trkpt>
      <trkpt lat="48.36199" lon="5.0584">
        <ele>308.24</ele>
        <time>2010-06-17T16:53:51Z</time>
      </trkpt>
      <trkpt lat="48.362" lon="5.05772">
        <ele>304.39</ele>
        <time>2010-06-17T16:53:54Z</time>
      </trkpt>
      <trkpt lat="48.36198" lon="5.05682">
        <ele>301.03</ele>
        <time>2010-06-17T16:53:58Z</time>
      </trkpt>
      <trkpt lat="48.36195" lon="5.0566">
        <ele>300.07</ele>
        <time>2010-06-17T16:53:59Z</time>
      </trkpt>
      <trkpt lat="48.36191" lon="5.0564">
        <ele>299.11</ele>
        <time>2010-06-17T16:54:00Z</time>
      </trkpt>
      <trkpt lat="48.36184" lon="5.0562">
        <ele>297.18</ele>
        <time>2010-06-17T16:54:01Z</time>
      </trkpt>
      <trkpt lat="48.36176" lon="5.05602">
        <ele>296.22</ele>
        <time>2010-06-17T16:54:02Z</time>
      </trkpt>
      <trkpt lat="48.36168" lon="5.05584">
        <ele>295.74</ele>
        <time>2010-06-17T16:54:03Z</time>
      </trkpt>
      <trkpt lat="48.36143" lon="5.05535">
        <ele>291.9</ele>
        <time>2010-06-17T16:54:06Z</time>
      </trkpt>
      <trkpt lat="48.36129" lon="5.05502">
        <ele>290.46</ele>
        <time>2010-06-17T16:54:08Z</time>
      </trkpt>
      <trkpt lat="48.36124" lon="5.05484">
        <ele>289.97</ele>
        <time>2010-06-17T16:54:09Z</time>
      </trkpt>
      <trkpt lat="48.36121" lon="5.05466">
        <ele>288.53</ele>
        <time>2010-06-17T16:54:10Z</time>
      </trkpt>
      <trkpt lat="48.3612" lon="5.05446">
        <ele>287.09</ele>
        <time>2010-06-17T16:54:11Z</time>
      </trkpt>
      <trkpt lat="48.3612" lon="5.05426">
        <ele>287.09</ele>
        <time>2010-06-17T16:54:12Z</time>
      </trkpt>
      <trkpt lat="48.36121" lon="5.05407">
        <ele>286.13</ele>
        <time>2010-06-17T16:54:13Z</time>
      </trkpt>
      <trkpt lat="48.36122" lon="5.05388">
        <ele>285.65</ele>
        <time>2010-06-17T16:54:14Z</time>
      </trkpt>
      <trkpt lat="48.36126" lon="5.05332">
        <ele>283.73</ele>
        <time>2010-06-17T16:54:17Z</time>
      </trkpt>
      <trkpt lat="48.3613" lon="5.05278">
        <ele>281.8</ele>
        <time>2010-06-17T16:54:20Z</time>
      </trkpt>
      <trkpt lat="48.3613" lon="5.05207">
        <ele>280.84</ele>
        <time>2010-06-17T16:54:24Z</time>
      </trkpt>
      <trkpt lat="48.36128" lon="5.05191">
        <ele>279.88</ele>
        <time>2010-06-17T16:54:25Z</time>
      </trkpt>
      <trkpt lat="48.36122" lon="5.05159">
        <ele>279.4</ele>
        <time>2010-06-17T16:54:27Z</time>
      </trkpt>
      <trkpt lat="48.36105" lon="5.05081">
        <ele>277.48</ele>
        <time>2010-06-17T16:54:32Z</time>
      </trkpt>
      <trkpt lat="48.36088" lon="5.04974">
        <ele>274.59</ele>
        <time>2010-06-17T16:54:39Z</time>
      </trkpt>
      <trkpt lat="48.3609" lon="5.0493">
        <ele>274.11</ele>
        <time>2010-06-17T16:54:42Z</time>
      </trkpt>
      <trkpt lat="48.36092" lon="5.04915">
        <ele>274.11</ele>
        <time>2010-06-17T16:54:43Z</time>
      </trkpt>
      <trkpt lat="48.36096" lon="5.04887">
        <ele>272.67</ele>
        <time>2010-06-17T16:54:45Z</time>
      </trkpt>
      <trkpt lat="48.3611" lon="5.04819">
        <ele>270.27</ele>
        <time>2010-06-17T16:54:50Z</time>
      </trkpt>
      <trkpt lat="48.36131" lon="5.04697">
        <ele>266.9</ele>
        <time>2010-06-17T16:54:59Z</time>
      </trkpt>
      <trkpt lat="48.36139" lon="5.046">
        <ele>263.54</ele>
        <time>2010-06-17T16:55:06Z</time>
      </trkpt>
      <trkpt lat="48.36146" lon="5.04519">
        <ele>261.14</ele>
        <time>2010-06-17T16:55:12Z</time>
      </trkpt>
      <trkpt lat="48.36149" lon="5.04505">
        <ele>260.17</ele>
        <time>2010-06-17T16:55:13Z</time>
      </trkpt>
      <trkpt lat="48.36152" lon="5.04492">
        <ele>259.69</ele>
        <time>2010-06-17T16:55:14Z</time>
      </trkpt>
      <trkpt lat="48.36157" lon="5.04479">
        <ele>259.21</ele>
        <time>2010-06-17T16:55:15Z</time>
      </trkpt>
      <trkpt lat="48.36162" lon="5.04466">
        <ele>258.73</ele>
        <time>2010-06-17T16:55:16Z</time>
      </trkpt>
      <trkpt lat="48.36168" lon="5.04454">
        <ele>257.29</ele>
        <time>2010-06-17T16:55:17Z</time>
      </trkpt>
      <trkpt lat="48.36174" lon="5.04444">
        <ele>257.29</ele>
        <time>2010-06-17T16:55:18Z</time>
      </trkpt>
      <trkpt lat="48.36181" lon="5.04435">
        <ele>256.33</ele>
        <time>2010-06-17T16:55:19Z</time>
      </trkpt>
      <trkpt lat="48.36198" lon="5.0442">
        <ele>253.93</ele>
        <time>2010-06-17T16:55:22Z</time>
      </trkpt>
      <trkpt lat="48.36202" lon="5.0442">
        <ele>253.44</ele>
        <time>2010-06-17T16:55:23Z</time>
      </trkpt>
      <trkpt lat="48.36206" lon="5.04421">
        <ele>253.44</ele>
        <time>2010-06-17T16:55:24Z</time>
      </trkpt>
      <trkpt lat="48.3621" lon="5.04424">
        <ele>252.96</ele>
        <time>2010-06-17T16:55:25Z</time>
      </trkpt>
      <trkpt lat="48.36213" lon="5.04429">
        <ele>252.96</ele>
        <time>2010-06-17T16:55:26Z</time>
      </trkpt>
      <trkpt lat="48.36216" lon="5.04435">
        <ele>252.48</ele>
        <time>2010-06-17T16:55:27Z</time>
      </trkpt>
      <trkpt lat="48.36217" lon="5.04441">
        <ele>252.96</ele>
        <time>2010-06-17T16:55:28Z</time>
      </trkpt>
      <trkpt lat="48.3622" lon="5.04447">
        <ele>252.48</ele>
        <time>2010-06-17T16:55:29Z</time>
      </trkpt>
      <trkpt lat="48.36223" lon="5.0445">
        <ele>252.48</ele>
        <time>2010-06-17T16:55:30Z</time>
      </trkpt>
      <trkpt lat="48.36227" lon="5.04451">
        <ele>252.48</ele>
        <time>2010-06-17T16:55:31Z</time>
      </trkpt>
      <trkpt lat="48.36231" lon="5.04451">
        <ele>252.48</ele>
        <time>2010-06-17T16:55:32Z</time>
      </trkpt>
      <trkpt lat="48.36233" lon="5.04453">
        <ele>252.48</ele>
        <time>2010-06-17T16:55:33Z</time>
      </trkpt>
      <trkpt lat="48.36234" lon="5.04457">
        <ele>252.48</ele>
        <time>2010-06-17T16:55:34Z</time>
      </trkpt>
      <trkpt lat="48.36234" lon="5.0446">
        <ele>252</ele>
        <time>2010-06-17T16:55:35Z</time>
      </trkpt>
      <trkpt lat="48.36235" lon="5.04462">
        <ele>252</ele>
        <time>2010-06-17T16:55:36Z</time>
      </trkpt>
      <trkpt lat="48.36235" lon="5.04465">
        <ele>252</ele>
        <time>2010-06-17T16:55:37Z</time>
      </trkpt>
      <trkpt lat="48.36236" lon="5.04467">
        <ele>252</ele>
        <time>2010-06-17T16:55:38Z</time>
      </trkpt>
      <trkpt lat="48.36237" lon="5.04469">
        <ele>252</ele>
        <time>2010-06-17T16:55:39Z</time>
      </trkpt>
      <trkpt lat="48.36238" lon="5.04471">
        <ele>252</ele>
        <time>2010-06-17T16:55:40Z</time>
      </trkpt>
      <trkpt lat="48.36239" lon="5.04473">
        <ele>252</ele>
        <time>2010-06-17T16:55:41Z</time>
      </trkpt>
      <trkpt lat="48.3624" lon="5.04473">
        <ele>252.48</ele>
        <time>2010-06-17T16:55:42Z</time>
      </trkpt>
      <trkpt lat="48.36242" lon="5.04473">
        <ele>252</ele>
        <time>2010-06-17T16:55:43Z</time>
      </trkpt>
      <trkpt lat="48.36243" lon="5.04473">
        <ele>252</ele>
        <time>2010-06-17T16:55:44Z</time>
      </trkpt>
      <trkpt lat="48.36245" lon="5.04474">
        <ele>252.48</ele>
        <time>2010-06-17T16:55:45Z</time>
      </trkpt>
      <trkpt lat="48.36247" lon="5.04475">
        <ele>252</ele>
        <time>2010-06-17T16:55:46Z</time>
      </trkpt>
      <trkpt lat="48.36252" lon="5.04471">
        <ele>252.48</ele>
        <time>2010-06-17T16:55:49Z</time>
      </trkpt>
      <trkpt lat="48.36258" lon="5.04468">
        <ele>252.96</ele>
        <time>2010-06-17T16:56:04Z</time>
      </trkpt>
      <trkpt lat="48.3626" lon="5.04469">
        <ele>252.48</ele>
        <time>2010-06-17T16:56:25Z</time>
      </trkpt>
      <trkpt lat="48.36262" lon="5.04467">
        <ele>252.96</ele>
        <time>2010-06-17T16:56:36Z</time>
      </trkpt>
      <trkpt lat="48.36262" lon="5.04467">
        <ele>252</ele>
        <time>2010-06-17T16:56:42Z</time>
      </trkpt>
      <trkpt lat="48.36268" lon="5.04483">
        <ele>250.56</ele>
        <time>2010-06-17T17:13:37Z</time>
      </trkpt>
      <trkpt lat="48.36268" lon="5.04483">
        <ele>250.56</ele>
        <time>2010-06-17T17:13:38Z</time>
      </trkpt>
      <trkpt lat="48.36264" lon="5.04489">
        <ele>250.56</ele>
        <time>2010-06-17T17:14:05Z</time>
      </trkpt>
    </trkseg>
  </trk>
</gpx>